<?xml version="1.0" encoding="UTF-8"?>
<gpx version="1.0" creator="GPSBabel - https://www.gpsbabel.org" xmlns="http://www.topografix.com/GPX/1/0">
  <time>2021-11-24T20:12:41.760Z</time>
  <bounds minlat="35.226620031" minlon="-106.485834000" maxlat="35.278851000" maxlon="-106.455343193"/>
  <wpt lat="35.269867171" lon="-106.482906363">
    <ele>0.000</ele>
    <name>Del Agua Canyon</name>
    <cmt>Del Agua Canyon</cmt>
    <desc>Del Agua Canyon</desc>
  </wpt>
  <wpt lat="35.276086508" lon="-106.474517674">
    <ele>0.000</ele>
    <name>Piedra Lisa Canyon</name>
    <cmt>Piedra Lisa Canyon</cmt>
    <desc>Piedra Lisa Canyon</desc>
  </wpt>
  <wpt lat="35.226620031" lon="-106.455343193">
    <ele>0.000</ele>
    <name>North Sandia</name>
    <cmt>North Sandia</cmt>
    <desc>North Sandia</desc>
  </wpt>
  <trk>
    <name>Del Agua-Piedra Lisa Hike.Jay.2013-03-09</name>
    <trkseg>
      <trkpt lat="35.276939000" lon="-106.484078000">
        <ele>1820.730</ele>
        <time>2013-03-09T18:07:21.593Z</time>
        <name>WPT</name>
      </trkpt>
      <trkpt lat="35.276939000" lon="-106.484078000">
        <ele>1820.580</ele>
        <time>2013-03-09T18:07:25.136Z</time>
        <name>WPT.1</name>
      </trkpt>
      <trkpt lat="35.276889000" lon="-106.484114000">
        <ele>1819.350</ele>
        <time>2013-03-09T18:07:34.823Z</time>
        <name>WPT.2</name>
      </trkpt>
      <trkpt lat="35.276804000" lon="-106.484169000">
        <ele>1818.750</ele>
        <time>2013-03-09T18:07:45.850Z</time>
        <name>WPT.3</name>
      </trkpt>
      <trkpt lat="35.276705000" lon="-106.484173000">
        <ele>1817.860</ele>
        <time>2013-03-09T18:07:53.374Z</time>
        <name>WPT.4</name>
      </trkpt>
      <trkpt lat="35.276624000" lon="-106.484240000">
        <ele>1816.020</ele>
        <time>2013-03-09T18:07:59.605Z</time>
        <name>WPT.5</name>
      </trkpt>
      <trkpt lat="35.276549000" lon="-106.484326000">
        <ele>1813.980</ele>
        <time>2013-03-09T18:08:06.708Z</time>
        <name>WPT.6</name>
      </trkpt>
      <trkpt lat="35.276444000" lon="-106.484347000">
        <ele>1812.960</ele>
        <time>2013-03-09T18:08:14.036Z</time>
        <name>WPT.7</name>
      </trkpt>
      <trkpt lat="35.276348000" lon="-106.484321000">
        <ele>1813.600</ele>
        <time>2013-03-09T18:08:20.599Z</time>
        <name>WPT.8</name>
      </trkpt>
      <trkpt lat="35.276257000" lon="-106.484351000">
        <ele>1816.070</ele>
        <time>2013-03-09T18:08:27.298Z</time>
        <name>WPT.9</name>
      </trkpt>
      <trkpt lat="35.276158000" lon="-106.484383000">
        <ele>1819.330</ele>
        <time>2013-03-09T18:08:34.893Z</time>
        <name>WPT.10</name>
      </trkpt>
      <trkpt lat="35.276067000" lon="-106.484388000">
        <ele>1821.630</ele>
        <time>2013-03-09T18:08:40.876Z</time>
        <name>WPT.11</name>
      </trkpt>
      <trkpt lat="35.275963000" lon="-106.484398000">
        <ele>1822.570</ele>
        <time>2013-03-09T18:08:49.172Z</time>
        <name>WPT.12</name>
      </trkpt>
      <trkpt lat="35.275875000" lon="-106.484367000">
        <ele>1823.010</ele>
        <time>2013-03-09T18:08:56.642Z</time>
        <name>WPT.13</name>
      </trkpt>
      <trkpt lat="35.275792000" lon="-106.484425000">
        <ele>1823.470</ele>
        <time>2013-03-09T18:09:07.240Z</time>
        <name>WPT.14</name>
      </trkpt>
      <trkpt lat="35.275749000" lon="-106.484525000">
        <ele>1823.830</ele>
        <time>2013-03-09T18:09:15.703Z</time>
        <name>WPT.15</name>
      </trkpt>
      <trkpt lat="35.275749000" lon="-106.484525000">
        <ele>1823.690</ele>
        <time>2013-03-09T18:09:23.082Z</time>
        <name>WPT.16</name>
      </trkpt>
      <trkpt lat="35.275688000" lon="-106.484618000">
        <ele>1822.140</ele>
        <time>2013-03-09T18:09:45.740Z</time>
        <name>WPT.17</name>
      </trkpt>
      <trkpt lat="35.275593000" lon="-106.484663000">
        <ele>1822.890</ele>
        <time>2013-03-09T18:09:52.679Z</time>
        <name>WPT.18</name>
      </trkpt>
      <trkpt lat="35.275506000" lon="-106.484687000">
        <ele>1825.720</ele>
        <time>2013-03-09T18:09:58.235Z</time>
        <name>WPT.19</name>
      </trkpt>
      <trkpt lat="35.275426000" lon="-106.484752000">
        <ele>1829.170</ele>
        <time>2013-03-09T18:10:05.043Z</time>
        <name>WPT.20</name>
      </trkpt>
      <trkpt lat="35.275333000" lon="-106.484778000">
        <ele>1831.720</ele>
        <time>2013-03-09T18:10:12.083Z</time>
        <name>WPT.21</name>
      </trkpt>
      <trkpt lat="35.275241000" lon="-106.484812000">
        <ele>1833.210</ele>
        <time>2013-03-09T18:10:18.887Z</time>
        <name>WPT.22</name>
      </trkpt>
      <trkpt lat="35.275140000" lon="-106.484830000">
        <ele>1833.990</ele>
        <time>2013-03-09T18:10:25.968Z</time>
        <name>WPT.23</name>
      </trkpt>
      <trkpt lat="35.275047000" lon="-106.484837000">
        <ele>1834.560</ele>
        <time>2013-03-09T18:10:32.673Z</time>
        <name>WPT.24</name>
      </trkpt>
      <trkpt lat="35.274959000" lon="-106.484878000">
        <ele>1834.890</ele>
        <time>2013-03-09T18:10:39.862Z</time>
        <name>WPT.25</name>
      </trkpt>
      <trkpt lat="35.274868000" lon="-106.484900000">
        <ele>1834.850</ele>
        <time>2013-03-09T18:10:47.613Z</time>
        <name>WPT.26</name>
      </trkpt>
      <trkpt lat="35.274868000" lon="-106.484900000">
        <ele>1833.890</ele>
        <time>2013-03-09T18:10:59.822Z</time>
        <name>WPT.27</name>
      </trkpt>
      <trkpt lat="35.274772000" lon="-106.484917000">
        <ele>1832.620</ele>
        <time>2013-03-09T18:11:16.030Z</time>
        <name>WPT.28</name>
      </trkpt>
      <trkpt lat="35.274676000" lon="-106.484949000">
        <ele>1832.100</ele>
        <time>2013-03-09T18:11:25.068Z</time>
        <name>WPT.29</name>
      </trkpt>
      <trkpt lat="35.274579000" lon="-106.484950000">
        <ele>1831.510</ele>
        <time>2013-03-09T18:11:32.799Z</time>
        <name>WPT.30</name>
      </trkpt>
      <trkpt lat="35.274487000" lon="-106.484997000">
        <ele>1831.150</ele>
        <time>2013-03-09T18:11:40.752Z</time>
        <name>WPT.31</name>
      </trkpt>
      <trkpt lat="35.274400000" lon="-106.485041000">
        <ele>1831.720</ele>
        <time>2013-03-09T18:11:48.570Z</time>
        <name>WPT.32</name>
      </trkpt>
      <trkpt lat="35.274400000" lon="-106.485041000">
        <ele>1833.950</ele>
        <time>2013-03-09T18:13:10.886Z</time>
        <name>WPT.33</name>
      </trkpt>
      <trkpt lat="35.274291000" lon="-106.485078000">
        <ele>1833.160</ele>
        <time>2013-03-09T18:13:32.132Z</time>
        <name>WPT.34</name>
      </trkpt>
      <trkpt lat="35.274194000" lon="-106.485063000">
        <ele>1832.760</ele>
        <time>2013-03-09T18:13:42.697Z</time>
        <name>WPT.35</name>
      </trkpt>
      <trkpt lat="35.274102000" lon="-106.485060000">
        <ele>1834.430</ele>
        <time>2013-03-09T18:13:50.765Z</time>
        <name>WPT.36</name>
      </trkpt>
      <trkpt lat="35.274011000" lon="-106.485104000">
        <ele>1836.610</ele>
        <time>2013-03-09T18:13:59.747Z</time>
        <name>WPT.37</name>
      </trkpt>
      <trkpt lat="35.273954000" lon="-106.485190000">
        <ele>1837.510</ele>
        <time>2013-03-09T18:14:07.995Z</time>
        <name>WPT.38</name>
      </trkpt>
      <trkpt lat="35.273865000" lon="-106.485267000">
        <ele>1837.580</ele>
        <time>2013-03-09T18:14:15.329Z</time>
        <name>WPT.39</name>
      </trkpt>
      <trkpt lat="35.273777000" lon="-106.485301000">
        <ele>1837.760</ele>
        <time>2013-03-09T18:14:21.033Z</time>
        <name>WPT.40</name>
      </trkpt>
      <trkpt lat="35.273738000" lon="-106.485416000">
        <ele>1838.270</ele>
        <time>2013-03-09T18:14:28.874Z</time>
        <name>WPT.41</name>
      </trkpt>
      <trkpt lat="35.273664000" lon="-106.485481000">
        <ele>1839.430</ele>
        <time>2013-03-09T18:14:36.989Z</time>
        <name>WPT.42</name>
      </trkpt>
      <trkpt lat="35.273563000" lon="-106.485453000">
        <ele>1841.440</ele>
        <time>2013-03-09T18:14:46.141Z</time>
        <name>WPT.43</name>
      </trkpt>
      <trkpt lat="35.273468000" lon="-106.485417000">
        <ele>1843.170</ele>
        <time>2013-03-09T18:14:54.803Z</time>
        <name>WPT.44</name>
      </trkpt>
      <trkpt lat="35.273379000" lon="-106.485398000">
        <ele>1843.650</ele>
        <time>2013-03-09T18:15:03.116Z</time>
        <name>WPT.45</name>
      </trkpt>
      <trkpt lat="35.273282000" lon="-106.485404000">
        <ele>1843.370</ele>
        <time>2013-03-09T18:15:11.534Z</time>
        <name>WPT.46</name>
      </trkpt>
      <trkpt lat="35.273181000" lon="-106.485424000">
        <ele>1843.310</ele>
        <time>2013-03-09T18:15:19.703Z</time>
        <name>WPT.47</name>
      </trkpt>
      <trkpt lat="35.273086000" lon="-106.485427000">
        <ele>1843.850</ele>
        <time>2013-03-09T18:15:27.765Z</time>
        <name>WPT.48</name>
      </trkpt>
      <trkpt lat="35.272992000" lon="-106.485400000">
        <ele>1844.410</ele>
        <time>2013-03-09T18:15:36.726Z</time>
        <name>WPT.49</name>
      </trkpt>
      <trkpt lat="35.272899000" lon="-106.485364000">
        <ele>1844.430</ele>
        <time>2013-03-09T18:15:46.839Z</time>
        <name>WPT.50</name>
      </trkpt>
      <trkpt lat="35.272811000" lon="-106.485390000">
        <ele>1844.270</ele>
        <time>2013-03-09T18:15:58.568Z</time>
        <name>WPT.51</name>
      </trkpt>
      <trkpt lat="35.272811000" lon="-106.485390000">
        <ele>1844.340</ele>
        <time>2013-03-09T18:16:06.725Z</time>
        <name>WPT.52</name>
      </trkpt>
      <trkpt lat="35.272691000" lon="-106.485382000">
        <ele>1843.590</ele>
        <time>2013-03-09T18:16:18.939Z</time>
        <name>WPT.53</name>
      </trkpt>
      <trkpt lat="35.272599000" lon="-106.485388000">
        <ele>1843.730</ele>
        <time>2013-03-09T18:16:25.194Z</time>
        <name>WPT.54</name>
      </trkpt>
      <trkpt lat="35.272507000" lon="-106.485439000">
        <ele>1846.270</ele>
        <time>2013-03-09T18:16:31.946Z</time>
        <name>WPT.55</name>
      </trkpt>
      <trkpt lat="35.272426000" lon="-106.485495000">
        <ele>1849.700</ele>
        <time>2013-03-09T18:16:37.893Z</time>
        <name>WPT.56</name>
      </trkpt>
      <trkpt lat="35.272371000" lon="-106.485592000">
        <ele>1851.830</ele>
        <time>2013-03-09T18:16:44.279Z</time>
        <name>WPT.57</name>
      </trkpt>
      <trkpt lat="35.272277000" lon="-106.485577000">
        <ele>1852.320</ele>
        <time>2013-03-09T18:16:50.916Z</time>
        <name>WPT.58</name>
      </trkpt>
      <trkpt lat="35.272181000" lon="-106.485586000">
        <ele>1851.820</ele>
        <time>2013-03-09T18:16:58.207Z</time>
        <name>WPT.59</name>
      </trkpt>
      <trkpt lat="35.272096000" lon="-106.485623000">
        <ele>1851.170</ele>
        <time>2013-03-09T18:17:05.552Z</time>
        <name>WPT.60</name>
      </trkpt>
      <trkpt lat="35.272096000" lon="-106.485623000">
        <ele>1850.500</ele>
        <time>2013-03-09T18:17:10.738Z</time>
        <name>WPT.61</name>
      </trkpt>
      <trkpt lat="35.272054000" lon="-106.485723000">
        <ele>1849.090</ele>
        <time>2013-03-09T18:17:23.017Z</time>
        <name>WPT.62</name>
      </trkpt>
      <trkpt lat="35.272039000" lon="-106.485834000">
        <ele>1848.830</ele>
        <time>2013-03-09T18:17:29.537Z</time>
        <name>WPT.63</name>
      </trkpt>
      <trkpt lat="35.272039000" lon="-106.485834000">
        <ele>1849.230</ele>
        <time>2013-03-09T18:17:47.023Z</time>
        <name>WPT.64</name>
      </trkpt>
      <trkpt lat="35.272089000" lon="-106.485730000">
        <ele>1847.480</ele>
        <time>2013-03-09T18:18:02.061Z</time>
        <name>WPT.65</name>
      </trkpt>
      <trkpt lat="35.272155000" lon="-106.485640000">
        <ele>1848.870</ele>
        <time>2013-03-09T18:18:10.118Z</time>
        <name>WPT.66</name>
      </trkpt>
      <trkpt lat="35.272113000" lon="-106.485535000">
        <ele>1853.740</ele>
        <time>2013-03-09T18:18:17.560Z</time>
        <name>WPT.67</name>
      </trkpt>
      <trkpt lat="35.272000000" lon="-106.485491000">
        <ele>1858.640</ele>
        <time>2013-03-09T18:18:23.606Z</time>
        <name>WPT.68</name>
      </trkpt>
      <trkpt lat="35.271898000" lon="-106.485433000">
        <ele>1860.290</ele>
        <time>2013-03-09T18:18:29.326Z</time>
        <name>WPT.69</name>
      </trkpt>
      <trkpt lat="35.271821000" lon="-106.485504000">
        <ele>1859.610</ele>
        <time>2013-03-09T18:18:35.346Z</time>
        <name>WPT.70</name>
      </trkpt>
      <trkpt lat="35.271755000" lon="-106.485584000">
        <ele>1858.760</ele>
        <time>2013-03-09T18:18:43.596Z</time>
        <name>WPT.71</name>
      </trkpt>
      <trkpt lat="35.271755000" lon="-106.485584000">
        <ele>1858.960</ele>
        <time>2013-03-09T18:18:51.713Z</time>
        <name>WPT.72</name>
      </trkpt>
      <trkpt lat="35.271733000" lon="-106.485704000">
        <ele>1857.190</ele>
        <time>2013-03-09T18:19:16.388Z</time>
        <name>WPT.73</name>
      </trkpt>
      <trkpt lat="35.271658000" lon="-106.485779000">
        <ele>1857.350</ele>
        <time>2013-03-09T18:19:23.114Z</time>
        <name>WPT.74</name>
      </trkpt>
      <trkpt lat="35.271567000" lon="-106.485746000">
        <ele>1859.350</ele>
        <time>2013-03-09T18:19:28.459Z</time>
        <name>WPT.75</name>
      </trkpt>
      <trkpt lat="35.271510000" lon="-106.485660000">
        <ele>1862.600</ele>
        <time>2013-03-09T18:19:33.409Z</time>
        <name>WPT.76</name>
      </trkpt>
      <trkpt lat="35.271419000" lon="-106.485639000">
        <ele>1865.770</ele>
        <time>2013-03-09T18:19:39.931Z</time>
        <name>WPT.77</name>
      </trkpt>
      <trkpt lat="35.271332000" lon="-106.485689000">
        <ele>1867.780</ele>
        <time>2013-03-09T18:19:47.550Z</time>
        <name>WPT.78</name>
      </trkpt>
      <trkpt lat="35.271245000" lon="-106.485632000">
        <ele>1868.670</ele>
        <time>2013-03-09T18:19:57.151Z</time>
        <name>WPT.79</name>
      </trkpt>
      <trkpt lat="35.271151000" lon="-106.485639000">
        <ele>1869.550</ele>
        <time>2013-03-09T18:20:06.411Z</time>
        <name>WPT.80</name>
      </trkpt>
      <trkpt lat="35.271080000" lon="-106.485554000">
        <ele>1870.880</ele>
        <time>2013-03-09T18:20:14.486Z</time>
        <name>WPT.81</name>
      </trkpt>
      <trkpt lat="35.270979000" lon="-106.485562000">
        <ele>1872.170</ele>
        <time>2013-03-09T18:20:21.778Z</time>
        <name>WPT.82</name>
      </trkpt>
      <trkpt lat="35.270979000" lon="-106.485562000">
        <ele>1872.780</ele>
        <time>2013-03-09T18:20:29.678Z</time>
        <name>WPT.83</name>
      </trkpt>
      <trkpt lat="35.270875000" lon="-106.485563000">
        <ele>1871.950</ele>
        <time>2013-03-09T18:20:56.501Z</time>
        <name>WPT.84</name>
      </trkpt>
      <trkpt lat="35.270789000" lon="-106.485510000">
        <ele>1871.640</ele>
        <time>2013-03-09T18:21:10.446Z</time>
        <name>WPT.85</name>
      </trkpt>
      <trkpt lat="35.270695000" lon="-106.485507000">
        <ele>1872.690</ele>
        <time>2013-03-09T18:21:22.840Z</time>
        <name>WPT.86</name>
      </trkpt>
      <trkpt lat="35.270649000" lon="-106.485406000">
        <ele>1873.860</ele>
        <time>2013-03-09T18:21:35.032Z</time>
        <name>WPT.87</name>
      </trkpt>
      <trkpt lat="35.270557000" lon="-106.485378000">
        <ele>1873.930</ele>
        <time>2013-03-09T18:21:49.375Z</time>
        <name>WPT.88</name>
      </trkpt>
      <trkpt lat="35.270469000" lon="-106.485322000">
        <ele>1873.510</ele>
        <time>2013-03-09T18:22:04.594Z</time>
        <name>WPT.89</name>
      </trkpt>
      <trkpt lat="35.270469000" lon="-106.485322000">
        <ele>1873.280</ele>
        <time>2013-03-09T18:22:06.681Z</time>
        <name>WPT.90</name>
      </trkpt>
      <trkpt lat="35.270391000" lon="-106.485228000">
        <ele>1871.670</ele>
        <time>2013-03-09T18:22:16.699Z</time>
        <name>WPT.91</name>
      </trkpt>
      <trkpt lat="35.270391000" lon="-106.485228000">
        <ele>1870.870</ele>
        <time>2013-03-09T18:22:23.001Z</time>
        <name>WPT.92</name>
      </trkpt>
      <trkpt lat="35.270315000" lon="-106.485152000">
        <ele>1869.480</ele>
        <time>2013-03-09T18:22:46.352Z</time>
        <name>WPT.93</name>
      </trkpt>
      <trkpt lat="35.270208000" lon="-106.485148000">
        <ele>1869.150</ele>
        <time>2013-03-09T18:22:51.784Z</time>
        <name>WPT.94</name>
      </trkpt>
      <trkpt lat="35.270108000" lon="-106.485138000">
        <ele>1869.320</ele>
        <time>2013-03-09T18:22:57.327Z</time>
        <name>WPT.95</name>
      </trkpt>
      <trkpt lat="35.270014000" lon="-106.485126000">
        <ele>1869.790</ele>
        <time>2013-03-09T18:23:02.622Z</time>
        <name>WPT.96</name>
      </trkpt>
      <trkpt lat="35.270014000" lon="-106.485126000">
        <ele>1870.400</ele>
        <time>2013-03-09T18:23:17.745Z</time>
        <name>WPT.97</name>
      </trkpt>
      <trkpt lat="35.269913000" lon="-106.485004000">
        <ele>1869.610</ele>
        <time>2013-03-09T18:23:55.014Z</time>
        <name>WPT.98</name>
      </trkpt>
      <trkpt lat="35.269821000" lon="-106.485006000">
        <ele>1869.820</ele>
        <time>2013-03-09T18:24:00.245Z</time>
        <name>WPT.99</name>
      </trkpt>
      <trkpt lat="35.269764000" lon="-106.484911000">
        <ele>1872.570</ele>
        <time>2013-03-09T18:24:05.756Z</time>
        <name>WPT.100</name>
      </trkpt>
      <trkpt lat="35.269683000" lon="-106.484864000">
        <ele>1876.020</ele>
        <time>2013-03-09T18:24:11.353Z</time>
        <name>WPT.101</name>
      </trkpt>
      <trkpt lat="35.269616000" lon="-106.484785000">
        <ele>1877.970</ele>
        <time>2013-03-09T18:24:17.565Z</time>
        <name>WPT.102</name>
      </trkpt>
      <trkpt lat="35.269616000" lon="-106.484785000">
        <ele>1877.290</ele>
        <time>2013-03-09T18:24:24.717Z</time>
        <name>WPT.103</name>
      </trkpt>
      <trkpt lat="35.269620000" lon="-106.484655000">
        <ele>1876.340</ele>
        <time>2013-03-09T18:24:38.450Z</time>
        <name>WPT.104</name>
      </trkpt>
      <trkpt lat="35.269615000" lon="-106.484545000">
        <ele>1876.560</ele>
        <time>2013-03-09T18:24:42.652Z</time>
        <name>WPT.105</name>
      </trkpt>
      <trkpt lat="35.269615000" lon="-106.484545000">
        <ele>1879.440</ele>
        <time>2013-03-09T18:24:48.686Z</time>
        <name>WPT.106</name>
      </trkpt>
      <trkpt lat="35.269536000" lon="-106.484493000">
        <ele>1877.050</ele>
        <time>2013-03-09T18:25:02.229Z</time>
        <name>WPT.107</name>
      </trkpt>
      <trkpt lat="35.269475000" lon="-106.484407000">
        <ele>1877.290</ele>
        <time>2013-03-09T18:25:12.172Z</time>
        <name>WPT.108</name>
      </trkpt>
      <trkpt lat="35.269408000" lon="-106.484319000">
        <ele>1880.580</ele>
        <time>2013-03-09T18:25:22.264Z</time>
        <name>WPT.109</name>
      </trkpt>
      <trkpt lat="35.269328000" lon="-106.484252000">
        <ele>1884.960</ele>
        <time>2013-03-09T18:25:31.856Z</time>
        <name>WPT.110</name>
      </trkpt>
      <trkpt lat="35.269262000" lon="-106.484162000">
        <ele>1887.600</ele>
        <time>2013-03-09T18:25:41.150Z</time>
        <name>WPT.111</name>
      </trkpt>
      <trkpt lat="35.269184000" lon="-106.484093000">
        <ele>1888.080</ele>
        <time>2013-03-09T18:25:51.132Z</time>
        <name>WPT.112</name>
      </trkpt>
      <trkpt lat="35.269183000" lon="-106.483976000">
        <ele>1887.680</ele>
        <time>2013-03-09T18:26:01.747Z</time>
        <name>WPT.113</name>
      </trkpt>
      <trkpt lat="35.269249000" lon="-106.483888000">
        <ele>1887.510</ele>
        <time>2013-03-09T18:26:15.544Z</time>
        <name>WPT.114</name>
      </trkpt>
      <trkpt lat="35.269225000" lon="-106.483781000">
        <ele>1887.630</ele>
        <time>2013-03-09T18:26:28.578Z</time>
        <name>WPT.115</name>
      </trkpt>
      <trkpt lat="35.269225000" lon="-106.483781000">
        <ele>1886.790</ele>
        <time>2013-03-09T18:26:45.684Z</time>
        <name>WPT.116</name>
      </trkpt>
      <trkpt lat="35.269380000" lon="-106.483696000">
        <ele>1885.930</ele>
        <time>2013-03-09T18:27:06.318Z</time>
        <name>WPT.117</name>
      </trkpt>
      <trkpt lat="35.269475000" lon="-106.483727000">
        <ele>1886.450</ele>
        <time>2013-03-09T18:27:12.584Z</time>
        <name>WPT.118</name>
      </trkpt>
      <trkpt lat="35.269567000" lon="-106.483699000">
        <ele>1889.110</ele>
        <time>2013-03-09T18:27:18.561Z</time>
        <name>WPT.119</name>
      </trkpt>
      <trkpt lat="35.269642000" lon="-106.483622000">
        <ele>1892.520</ele>
        <time>2013-03-09T18:27:24.587Z</time>
        <name>WPT.120</name>
      </trkpt>
      <trkpt lat="35.269642000" lon="-106.483622000">
        <ele>1894.780</ele>
        <time>2013-03-09T18:27:44.681Z</time>
        <name>WPT.121</name>
      </trkpt>
      <trkpt lat="35.269703000" lon="-106.483536000">
        <ele>1893.090</ele>
        <time>2013-03-09T18:28:07.402Z</time>
        <name>WPT.122</name>
      </trkpt>
      <trkpt lat="35.269785000" lon="-106.483491000">
        <ele>1893.360</ele>
        <time>2013-03-09T18:28:13.147Z</time>
        <name>WPT.123</name>
      </trkpt>
      <trkpt lat="35.269889000" lon="-106.483482000">
        <ele>1894.450</ele>
        <time>2013-03-09T18:28:19.211Z</time>
        <name>WPT.124</name>
      </trkpt>
      <trkpt lat="35.269983000" lon="-106.483458000">
        <ele>1896.420</ele>
        <time>2013-03-09T18:28:24.587Z</time>
        <name>WPT.125</name>
      </trkpt>
      <trkpt lat="35.269983000" lon="-106.483458000">
        <ele>1898.430</ele>
        <time>2013-03-09T18:28:55.681Z</time>
        <name>WPT.126</name>
      </trkpt>
      <trkpt lat="35.270095000" lon="-106.483493000">
        <ele>1897.170</ele>
        <time>2013-03-09T18:29:20.831Z</time>
        <name>WPT.127</name>
      </trkpt>
      <trkpt lat="35.270177000" lon="-106.483546000">
        <ele>1898.290</ele>
        <time>2013-03-09T18:29:27.587Z</time>
        <name>WPT.128</name>
      </trkpt>
      <trkpt lat="35.270177000" lon="-106.483546000">
        <ele>1905.130</ele>
        <time>2013-03-09T18:30:15.810Z</time>
        <name>WPT.129</name>
      </trkpt>
      <trkpt lat="35.270361000" lon="-106.483355000">
        <ele>1902.840</ele>
        <time>2013-03-09T18:31:02.584Z</time>
        <name>WPT.130</name>
      </trkpt>
      <trkpt lat="35.270361000" lon="-106.483355000">
        <ele>1902.440</ele>
        <time>2013-03-09T18:31:05.794Z</time>
        <name>WPT.131</name>
      </trkpt>
      <trkpt lat="35.270383000" lon="-106.483245000">
        <ele>1901.980</ele>
        <time>2013-03-09T18:32:36.171Z</time>
        <name>WPT.132</name>
      </trkpt>
      <trkpt lat="35.270364000" lon="-106.483125000">
        <ele>1902.550</ele>
        <time>2013-03-09T18:32:43.997Z</time>
        <name>WPT.133</name>
      </trkpt>
      <trkpt lat="35.270315000" lon="-106.483006000">
        <ele>1905.700</ele>
        <time>2013-03-09T18:32:50.886Z</time>
        <name>WPT.134</name>
      </trkpt>
      <trkpt lat="35.270272000" lon="-106.482889000">
        <ele>1908.900</ele>
        <time>2013-03-09T18:32:58.511Z</time>
        <name>WPT.135</name>
      </trkpt>
      <trkpt lat="35.270246000" lon="-106.482776000">
        <ele>1909.640</ele>
        <time>2013-03-09T18:33:07.515Z</time>
        <name>WPT.136</name>
      </trkpt>
      <trkpt lat="35.270199000" lon="-106.482677000">
        <ele>1909.560</ele>
        <time>2013-03-09T18:33:18.525Z</time>
        <name>WPT.137</name>
      </trkpt>
      <trkpt lat="35.270166000" lon="-106.482573000">
        <ele>1910.850</ele>
        <time>2013-03-09T18:33:28.936Z</time>
        <name>WPT.138</name>
      </trkpt>
      <trkpt lat="35.270073000" lon="-106.482529000">
        <ele>1913.040</ele>
        <time>2013-03-09T18:33:41.304Z</time>
        <name>WPT.139</name>
      </trkpt>
      <trkpt lat="35.269999000" lon="-106.482452000">
        <ele>1914.600</ele>
        <time>2013-03-09T18:33:53.461Z</time>
        <name>WPT.140</name>
      </trkpt>
      <trkpt lat="35.269990000" lon="-106.482337000">
        <ele>1915.290</ele>
        <time>2013-03-09T18:34:02.640Z</time>
        <name>WPT.141</name>
      </trkpt>
      <trkpt lat="35.269987000" lon="-106.482218000">
        <ele>1915.610</ele>
        <time>2013-03-09T18:34:12.822Z</time>
        <name>WPT.142</name>
      </trkpt>
      <trkpt lat="35.270040000" lon="-106.482116000">
        <ele>1916.080</ele>
        <time>2013-03-09T18:34:24.060Z</time>
        <name>WPT.143</name>
      </trkpt>
      <trkpt lat="35.270047000" lon="-106.482002000">
        <ele>1917.260</ele>
        <time>2013-03-09T18:34:34.430Z</time>
        <name>WPT.144</name>
      </trkpt>
      <trkpt lat="35.270065000" lon="-106.481887000">
        <ele>1919.060</ele>
        <time>2013-03-09T18:34:45.647Z</time>
        <name>WPT.145</name>
      </trkpt>
      <trkpt lat="35.270058000" lon="-106.481773000">
        <ele>1920.490</ele>
        <time>2013-03-09T18:34:57.173Z</time>
        <name>WPT.146</name>
      </trkpt>
      <trkpt lat="35.270030000" lon="-106.481660000">
        <ele>1920.780</ele>
        <time>2013-03-09T18:35:04.951Z</time>
        <name>WPT.147</name>
      </trkpt>
      <trkpt lat="35.270052000" lon="-106.481534000">
        <ele>1920.080</ele>
        <time>2013-03-09T18:35:11.492Z</time>
        <name>WPT.148</name>
      </trkpt>
      <trkpt lat="35.269997000" lon="-106.481433000">
        <ele>1919.190</ele>
        <time>2013-03-09T18:35:17.571Z</time>
        <name>WPT.149</name>
      </trkpt>
      <trkpt lat="35.269990000" lon="-106.481294000">
        <ele>1918.860</ele>
        <time>2013-03-09T18:35:25.707Z</time>
        <name>WPT.150</name>
      </trkpt>
      <trkpt lat="35.270036000" lon="-106.481182000">
        <ele>1919.120</ele>
        <time>2013-03-09T18:35:33.603Z</time>
        <name>WPT.151</name>
      </trkpt>
      <trkpt lat="35.269932000" lon="-106.481114000">
        <ele>1919.550</ele>
        <time>2013-03-09T18:35:50.549Z</time>
        <name>WPT.152</name>
      </trkpt>
      <trkpt lat="35.269868000" lon="-106.481021000">
        <ele>1920.080</ele>
        <time>2013-03-09T18:36:04.728Z</time>
        <name>WPT.153</name>
      </trkpt>
      <trkpt lat="35.269809000" lon="-106.480927000">
        <ele>1921.410</ele>
        <time>2013-03-09T18:36:16.350Z</time>
        <name>WPT.154</name>
      </trkpt>
      <trkpt lat="35.269760000" lon="-106.480832000">
        <ele>1923.850</ele>
        <time>2013-03-09T18:36:23.204Z</time>
        <name>WPT.155</name>
      </trkpt>
      <trkpt lat="35.269687000" lon="-106.480764000">
        <ele>1926.360</ele>
        <time>2013-03-09T18:36:29.472Z</time>
        <name>WPT.156</name>
      </trkpt>
      <trkpt lat="35.269605000" lon="-106.480703000">
        <ele>1927.690</ele>
        <time>2013-03-09T18:36:35.838Z</time>
        <name>WPT.157</name>
      </trkpt>
      <trkpt lat="35.269516000" lon="-106.480652000">
        <ele>1927.720</ele>
        <time>2013-03-09T18:36:43.132Z</time>
        <name>WPT.158</name>
      </trkpt>
      <trkpt lat="35.269468000" lon="-106.480550000">
        <ele>1927.370</ele>
        <time>2013-03-09T18:36:51.607Z</time>
        <name>WPT.159</name>
      </trkpt>
      <trkpt lat="35.269440000" lon="-106.480439000">
        <ele>1927.350</ele>
        <time>2013-03-09T18:37:01.399Z</time>
        <name>WPT.160</name>
      </trkpt>
      <trkpt lat="35.269358000" lon="-106.480378000">
        <ele>1927.850</ele>
        <time>2013-03-09T18:37:11.563Z</time>
        <name>WPT.161</name>
      </trkpt>
      <trkpt lat="35.269266000" lon="-106.480346000">
        <ele>1928.880</ele>
        <time>2013-03-09T18:37:21.592Z</time>
        <name>WPT.162</name>
      </trkpt>
      <trkpt lat="35.269266000" lon="-106.480346000">
        <ele>1930.360</ele>
        <time>2013-03-09T18:37:27.687Z</time>
        <name>WPT.163</name>
      </trkpt>
      <trkpt lat="35.269177000" lon="-106.480314000">
        <ele>1928.370</ele>
        <time>2013-03-09T18:37:49.620Z</time>
        <name>WPT.164</name>
      </trkpt>
      <trkpt lat="35.269093000" lon="-106.480262000">
        <ele>1928.850</ele>
        <time>2013-03-09T18:37:59.078Z</time>
        <name>WPT.165</name>
      </trkpt>
      <trkpt lat="35.268997000" lon="-106.480254000">
        <ele>1931.580</ele>
        <time>2013-03-09T18:38:05.587Z</time>
        <name>WPT.166</name>
      </trkpt>
      <trkpt lat="35.268997000" lon="-106.480254000">
        <ele>1935.610</ele>
        <time>2013-03-09T18:38:10.686Z</time>
        <name>WPT.167</name>
      </trkpt>
      <trkpt lat="35.268911000" lon="-106.480143000">
        <ele>1933.150</ele>
        <time>2013-03-09T18:38:58.589Z</time>
        <name>WPT.168</name>
      </trkpt>
      <trkpt lat="35.268911000" lon="-106.480143000">
        <ele>1931.900</ele>
        <time>2013-03-09T18:39:10.693Z</time>
        <name>WPT.169</name>
      </trkpt>
      <trkpt lat="35.268868000" lon="-106.480037000">
        <ele>1931.460</ele>
        <time>2013-03-09T18:39:28.750Z</time>
        <name>WPT.170</name>
      </trkpt>
      <trkpt lat="35.268787000" lon="-106.479969000">
        <ele>1932.550</ele>
        <time>2013-03-09T18:39:40.511Z</time>
        <name>WPT.171</name>
      </trkpt>
      <trkpt lat="35.268690000" lon="-106.479922000">
        <ele>1936.270</ele>
        <time>2013-03-09T18:39:50.712Z</time>
        <name>WPT.172</name>
      </trkpt>
      <trkpt lat="35.268595000" lon="-106.479935000">
        <ele>1940.260</ele>
        <time>2013-03-09T18:39:56.191Z</time>
        <name>WPT.173</name>
      </trkpt>
      <trkpt lat="35.268507000" lon="-106.479916000">
        <ele>1941.920</ele>
        <time>2013-03-09T18:40:01.332Z</time>
        <name>WPT.174</name>
      </trkpt>
      <trkpt lat="35.268412000" lon="-106.479887000">
        <ele>1941.800</ele>
        <time>2013-03-09T18:40:07.642Z</time>
        <name>WPT.175</name>
      </trkpt>
      <trkpt lat="35.268316000" lon="-106.479885000">
        <ele>1941.190</ele>
        <time>2013-03-09T18:40:14.833Z</time>
        <name>WPT.176</name>
      </trkpt>
      <trkpt lat="35.268316000" lon="-106.479885000">
        <ele>1939.830</ele>
        <time>2013-03-09T18:40:24.749Z</time>
        <name>WPT.177</name>
      </trkpt>
      <trkpt lat="35.268256000" lon="-106.479800000">
        <ele>1938.620</ele>
        <time>2013-03-09T18:40:51.754Z</time>
        <name>WPT.178</name>
      </trkpt>
      <trkpt lat="35.268187000" lon="-106.479713000">
        <ele>1939.180</ele>
        <time>2013-03-09T18:41:00.148Z</time>
        <name>WPT.179</name>
      </trkpt>
      <trkpt lat="35.268128000" lon="-106.479621000">
        <ele>1941.700</ele>
        <time>2013-03-09T18:41:06.823Z</time>
        <name>WPT.180</name>
      </trkpt>
      <trkpt lat="35.268127000" lon="-106.479499000">
        <ele>1944.840</ele>
        <time>2013-03-09T18:41:14.336Z</time>
        <name>WPT.181</name>
      </trkpt>
      <trkpt lat="35.268125000" lon="-106.479373000">
        <ele>1946.620</ele>
        <time>2013-03-09T18:41:21.645Z</time>
        <name>WPT.182</name>
      </trkpt>
      <trkpt lat="35.268125000" lon="-106.479373000">
        <ele>1945.760</ele>
        <time>2013-03-09T18:41:22.733Z</time>
        <name>WPT.183</name>
      </trkpt>
      <trkpt lat="35.268214000" lon="-106.479355000">
        <ele>1944.350</ele>
        <time>2013-03-09T18:41:43.543Z</time>
        <name>WPT.184</name>
      </trkpt>
      <trkpt lat="35.268171000" lon="-106.479258000">
        <ele>1944.260</ele>
        <time>2013-03-09T18:42:00.554Z</time>
        <name>WPT.185</name>
      </trkpt>
      <trkpt lat="35.268171000" lon="-106.479258000">
        <ele>1943.160</ele>
        <time>2013-03-09T18:42:05.613Z</time>
        <name>WPT.186</name>
      </trkpt>
      <trkpt lat="35.268080000" lon="-106.479137000">
        <ele>1941.700</ele>
        <time>2013-03-09T18:42:36.663Z</time>
        <name>WPT.187</name>
      </trkpt>
      <trkpt lat="35.268003000" lon="-106.479067000">
        <ele>1941.580</ele>
        <time>2013-03-09T18:42:44.797Z</time>
        <name>WPT.188</name>
      </trkpt>
      <trkpt lat="35.267909000" lon="-106.478979000">
        <ele>1942.330</ele>
        <time>2013-03-09T18:42:50.578Z</time>
        <name>WPT.189</name>
      </trkpt>
      <trkpt lat="35.267909000" lon="-106.478979000">
        <ele>1944.610</ele>
        <time>2013-03-09T18:47:56.551Z</time>
        <name>WPT.190</name>
      </trkpt>
      <trkpt lat="35.267868000" lon="-106.479015000">
        <ele>1956.800</ele>
        <time>2013-03-09T18:48:29.035Z</time>
        <name>WPT.191</name>
      </trkpt>
      <trkpt lat="35.267868000" lon="-106.479015000">
        <ele>1955.390</ele>
        <time>2013-03-09T18:49:49.453Z</time>
        <name>WPT.192</name>
      </trkpt>
      <trkpt lat="35.267790000" lon="-106.479089000">
        <ele>1954.960</ele>
        <time>2013-03-09T18:51:14.572Z</time>
        <name>WPT.193</name>
      </trkpt>
      <trkpt lat="35.267706000" lon="-106.479048000">
        <ele>1954.790</ele>
        <time>2013-03-09T18:51:25.272Z</time>
        <name>WPT.194</name>
      </trkpt>
      <trkpt lat="35.267635000" lon="-106.478965000">
        <ele>1955.360</ele>
        <time>2013-03-09T18:51:33.689Z</time>
        <name>WPT.195</name>
      </trkpt>
      <trkpt lat="35.267550000" lon="-106.478915000">
        <ele>1956.240</ele>
        <time>2013-03-09T18:51:40.592Z</time>
        <name>WPT.196</name>
      </trkpt>
      <trkpt lat="35.267482000" lon="-106.478821000">
        <ele>1956.370</ele>
        <time>2013-03-09T18:51:47.957Z</time>
        <name>WPT.197</name>
      </trkpt>
      <trkpt lat="35.267392000" lon="-106.478768000">
        <ele>1955.680</ele>
        <time>2013-03-09T18:51:55.352Z</time>
        <name>WPT.198</name>
      </trkpt>
      <trkpt lat="35.267322000" lon="-106.478684000">
        <ele>1955.260</ele>
        <time>2013-03-09T18:52:03.076Z</time>
        <name>WPT.199</name>
      </trkpt>
      <trkpt lat="35.267322000" lon="-106.478684000">
        <ele>1955.890</ele>
        <time>2013-03-09T18:52:11.356Z</time>
        <name>WPT.200</name>
      </trkpt>
      <trkpt lat="35.267212000" lon="-106.478605000">
        <ele>1953.970</ele>
        <time>2013-03-09T18:52:40.013Z</time>
        <name>WPT.201</name>
      </trkpt>
      <trkpt lat="35.267151000" lon="-106.478512000">
        <ele>1953.400</ele>
        <time>2013-03-09T18:52:45.412Z</time>
        <name>WPT.202</name>
      </trkpt>
      <trkpt lat="35.267080000" lon="-106.478430000">
        <ele>1953.510</ele>
        <time>2013-03-09T18:52:52.028Z</time>
        <name>WPT.203</name>
      </trkpt>
      <trkpt lat="35.266992000" lon="-106.478392000">
        <ele>1954.070</ele>
        <time>2013-03-09T18:52:58.493Z</time>
        <name>WPT.204</name>
      </trkpt>
      <trkpt lat="35.266908000" lon="-106.478344000">
        <ele>1955.690</ele>
        <time>2013-03-09T18:53:06.164Z</time>
        <name>WPT.205</name>
      </trkpt>
      <trkpt lat="35.266908000" lon="-106.478344000">
        <ele>1960.930</ele>
        <time>2013-03-09T18:53:17.387Z</time>
        <name>WPT.206</name>
      </trkpt>
      <trkpt lat="35.266827000" lon="-106.478254000">
        <ele>1960.060</ele>
        <time>2013-03-09T18:53:33.560Z</time>
        <name>WPT.207</name>
      </trkpt>
      <trkpt lat="35.266736000" lon="-106.478208000">
        <ele>1959.490</ele>
        <time>2013-03-09T18:53:42.919Z</time>
        <name>WPT.208</name>
      </trkpt>
      <trkpt lat="35.266652000" lon="-106.478155000">
        <ele>1962.860</ele>
        <time>2013-03-09T18:53:52.783Z</time>
        <name>WPT.209</name>
      </trkpt>
      <trkpt lat="35.266559000" lon="-106.478159000">
        <ele>1968.810</ele>
        <time>2013-03-09T18:54:02.600Z</time>
        <name>WPT.210</name>
      </trkpt>
      <trkpt lat="35.266479000" lon="-106.478079000">
        <ele>1973.770</ele>
        <time>2013-03-09T18:54:11.151Z</time>
        <name>WPT.211</name>
      </trkpt>
      <trkpt lat="35.266410000" lon="-106.477992000">
        <ele>1976.230</ele>
        <time>2013-03-09T18:54:20.663Z</time>
        <name>WPT.212</name>
      </trkpt>
      <trkpt lat="35.266404000" lon="-106.477882000">
        <ele>1976.380</ele>
        <time>2013-03-09T18:54:29.720Z</time>
        <name>WPT.213</name>
      </trkpt>
      <trkpt lat="35.266345000" lon="-106.477790000">
        <ele>1975.700</ele>
        <time>2013-03-09T18:54:46.133Z</time>
        <name>WPT.214</name>
      </trkpt>
      <trkpt lat="35.266256000" lon="-106.477717000">
        <ele>1975.360</ele>
        <time>2013-03-09T18:54:59.877Z</time>
        <name>WPT.215</name>
      </trkpt>
      <trkpt lat="35.266180000" lon="-106.477590000">
        <ele>1975.480</ele>
        <time>2013-03-09T18:55:16.163Z</time>
        <name>WPT.216</name>
      </trkpt>
      <trkpt lat="35.266105000" lon="-106.477526000">
        <ele>1975.900</ele>
        <time>2013-03-09T18:55:25.949Z</time>
        <name>WPT.217</name>
      </trkpt>
      <trkpt lat="35.266026000" lon="-106.477470000">
        <ele>1976.460</ele>
        <time>2013-03-09T18:55:31.305Z</time>
        <name>WPT.218</name>
      </trkpt>
      <trkpt lat="35.265940000" lon="-106.477425000">
        <ele>1977.170</ele>
        <time>2013-03-09T18:55:36.054Z</time>
        <name>WPT.219</name>
      </trkpt>
      <trkpt lat="35.265940000" lon="-106.477425000">
        <ele>1978.880</ele>
        <time>2013-03-09T18:55:43.160Z</time>
        <name>WPT.220</name>
      </trkpt>
      <trkpt lat="35.265878000" lon="-106.477328000">
        <ele>1978.040</ele>
        <time>2013-03-09T18:56:54.193Z</time>
        <name>WPT.221</name>
      </trkpt>
      <trkpt lat="35.265787000" lon="-106.477317000">
        <ele>1978.630</ele>
        <time>2013-03-09T18:56:58.527Z</time>
        <name>WPT.222</name>
      </trkpt>
      <trkpt lat="35.265704000" lon="-106.477261000">
        <ele>1982.950</ele>
        <time>2013-03-09T18:57:03.054Z</time>
        <name>WPT.223</name>
      </trkpt>
      <trkpt lat="35.265704000" lon="-106.477261000">
        <ele>1989.970</ele>
        <time>2013-03-09T18:57:12.253Z</time>
        <name>WPT.224</name>
      </trkpt>
      <trkpt lat="35.265644000" lon="-106.477141000">
        <ele>1988.820</ele>
        <time>2013-03-09T18:57:34.341Z</time>
        <name>WPT.225</name>
      </trkpt>
      <trkpt lat="35.265587000" lon="-106.477045000">
        <ele>1987.130</ele>
        <time>2013-03-09T18:57:44.058Z</time>
        <name>WPT.226</name>
      </trkpt>
      <trkpt lat="35.265510000" lon="-106.476987000">
        <ele>1986.960</ele>
        <time>2013-03-09T18:57:52.214Z</time>
        <name>WPT.227</name>
      </trkpt>
      <trkpt lat="35.265473000" lon="-106.476870000">
        <ele>1988.100</ele>
        <time>2013-03-09T18:58:03.066Z</time>
        <name>WPT.228</name>
      </trkpt>
      <trkpt lat="35.265458000" lon="-106.476734000">
        <ele>1989.280</ele>
        <time>2013-03-09T18:58:15.589Z</time>
        <name>WPT.229</name>
      </trkpt>
      <trkpt lat="35.265494000" lon="-106.476626000">
        <ele>1989.850</ele>
        <time>2013-03-09T18:58:24.541Z</time>
        <name>WPT.230</name>
      </trkpt>
      <trkpt lat="35.265450000" lon="-106.476529000">
        <ele>1990.070</ele>
        <time>2013-03-09T18:58:32.750Z</time>
        <name>WPT.231</name>
      </trkpt>
      <trkpt lat="35.265473000" lon="-106.476414000">
        <ele>1990.750</ele>
        <time>2013-03-09T18:58:47.623Z</time>
        <name>WPT.232</name>
      </trkpt>
      <trkpt lat="35.265535000" lon="-106.476314000">
        <ele>1992.240</ele>
        <time>2013-03-09T18:59:03.578Z</time>
        <name>WPT.233</name>
      </trkpt>
      <trkpt lat="35.265569000" lon="-106.476201000">
        <ele>1993.840</ele>
        <time>2013-03-09T18:59:12.239Z</time>
        <name>WPT.234</name>
      </trkpt>
      <trkpt lat="35.265606000" lon="-106.476091000">
        <ele>1994.760</ele>
        <time>2013-03-09T18:59:20.237Z</time>
        <name>WPT.235</name>
      </trkpt>
      <trkpt lat="35.265649000" lon="-106.475985000">
        <ele>1994.570</ele>
        <time>2013-03-09T18:59:29.432Z</time>
        <name>WPT.236</name>
      </trkpt>
      <trkpt lat="35.265631000" lon="-106.475873000">
        <ele>1993.410</ele>
        <time>2013-03-09T18:59:38.997Z</time>
        <name>WPT.237</name>
      </trkpt>
      <trkpt lat="35.265597000" lon="-106.475769000">
        <ele>1992.720</ele>
        <time>2013-03-09T18:59:47.960Z</time>
        <name>WPT.238</name>
      </trkpt>
      <trkpt lat="35.265541000" lon="-106.475674000">
        <ele>1993.560</ele>
        <time>2013-03-09T18:59:57.512Z</time>
        <name>WPT.239</name>
      </trkpt>
      <trkpt lat="35.265453000" lon="-106.475618000">
        <ele>1995.220</ele>
        <time>2013-03-09T19:00:06.979Z</time>
        <name>WPT.240</name>
      </trkpt>
      <trkpt lat="35.265370000" lon="-106.475560000">
        <ele>1996.730</ele>
        <time>2013-03-09T19:00:15.887Z</time>
        <name>WPT.241</name>
      </trkpt>
      <trkpt lat="35.265298000" lon="-106.475627000">
        <ele>1997.960</ele>
        <time>2013-03-09T19:00:25.744Z</time>
        <name>WPT.242</name>
      </trkpt>
      <trkpt lat="35.265219000" lon="-106.475558000">
        <ele>1999.230</ele>
        <time>2013-03-09T19:00:35.892Z</time>
        <name>WPT.243</name>
      </trkpt>
      <trkpt lat="35.265158000" lon="-106.475473000">
        <ele>2000.910</ele>
        <time>2013-03-09T19:00:43.030Z</time>
        <name>WPT.244</name>
      </trkpt>
      <trkpt lat="35.265105000" lon="-106.475379000">
        <ele>2002.870</ele>
        <time>2013-03-09T19:00:50.927Z</time>
        <name>WPT.245</name>
      </trkpt>
      <trkpt lat="35.265075000" lon="-106.475269000">
        <ele>2004.660</ele>
        <time>2013-03-09T19:01:00.817Z</time>
        <name>WPT.246</name>
      </trkpt>
      <trkpt lat="35.264986000" lon="-106.475181000">
        <ele>2005.160</ele>
        <time>2013-03-09T19:01:11.436Z</time>
        <name>WPT.247</name>
      </trkpt>
      <trkpt lat="35.264921000" lon="-106.475097000">
        <ele>2004.010</ele>
        <time>2013-03-09T19:01:17.848Z</time>
        <name>WPT.248</name>
      </trkpt>
      <trkpt lat="35.264927000" lon="-106.474985000">
        <ele>2002.720</ele>
        <time>2013-03-09T19:01:24.125Z</time>
        <name>WPT.249</name>
      </trkpt>
      <trkpt lat="35.264927000" lon="-106.474985000">
        <ele>2002.690</ele>
        <time>2013-03-09T19:02:30.951Z</time>
        <name>WPT.250</name>
      </trkpt>
      <trkpt lat="35.264875000" lon="-106.474892000">
        <ele>2000.870</ele>
        <time>2013-03-09T19:02:58.227Z</time>
        <name>WPT.251</name>
      </trkpt>
      <trkpt lat="35.264807000" lon="-106.474806000">
        <ele>2001.970</ele>
        <time>2013-03-09T19:03:07.887Z</time>
        <name>WPT.252</name>
      </trkpt>
      <trkpt lat="35.264774000" lon="-106.474696000">
        <ele>2006.690</ele>
        <time>2013-03-09T19:03:15.156Z</time>
        <name>WPT.253</name>
      </trkpt>
      <trkpt lat="35.264774000" lon="-106.474696000">
        <ele>2015.010</ele>
        <time>2013-03-09T19:03:46.758Z</time>
        <name>WPT.254</name>
      </trkpt>
      <trkpt lat="35.264725000" lon="-106.474535000">
        <ele>2013.900</ele>
        <time>2013-03-09T19:04:29.594Z</time>
        <name>WPT.255</name>
      </trkpt>
      <trkpt lat="35.264688000" lon="-106.474423000">
        <ele>2012.060</ele>
        <time>2013-03-09T19:04:38.210Z</time>
        <name>WPT.256</name>
      </trkpt>
      <trkpt lat="35.264670000" lon="-106.474293000">
        <ele>2012.040</ele>
        <time>2013-03-09T19:04:50.120Z</time>
        <name>WPT.257</name>
      </trkpt>
      <trkpt lat="35.264608000" lon="-106.474186000">
        <ele>2013.300</ele>
        <time>2013-03-09T19:05:03.237Z</time>
        <name>WPT.258</name>
      </trkpt>
      <trkpt lat="35.264608000" lon="-106.474186000">
        <ele>2014.500</ele>
        <time>2013-03-09T19:05:42.281Z</time>
        <name>WPT.259</name>
      </trkpt>
      <trkpt lat="35.264529000" lon="-106.473941000">
        <ele>2013.600</ele>
        <time>2013-03-09T19:06:10.618Z</time>
        <name>WPT.260</name>
      </trkpt>
      <trkpt lat="35.264473000" lon="-106.473850000">
        <ele>2013.310</ele>
        <time>2013-03-09T19:06:19.475Z</time>
        <name>WPT.261</name>
      </trkpt>
      <trkpt lat="35.264456000" lon="-106.473740000">
        <ele>2014.780</ele>
        <time>2013-03-09T19:06:29.582Z</time>
        <name>WPT.262</name>
      </trkpt>
      <trkpt lat="35.264422000" lon="-106.473632000">
        <ele>2016.740</ele>
        <time>2013-03-09T19:06:41.392Z</time>
        <name>WPT.263</name>
      </trkpt>
      <trkpt lat="35.264452000" lon="-106.473516000">
        <ele>2017.660</ele>
        <time>2013-03-09T19:06:54.253Z</time>
        <name>WPT.264</name>
      </trkpt>
      <trkpt lat="35.264454000" lon="-106.473402000">
        <ele>2017.540</ele>
        <time>2013-03-09T19:07:03.069Z</time>
        <name>WPT.265</name>
      </trkpt>
      <trkpt lat="35.264433000" lon="-106.473292000">
        <ele>2017.040</ele>
        <time>2013-03-09T19:07:11.082Z</time>
        <name>WPT.266</name>
      </trkpt>
      <trkpt lat="35.264433000" lon="-106.473292000">
        <ele>2014.830</ele>
        <time>2013-03-09T19:07:39.159Z</time>
        <name>WPT.267</name>
      </trkpt>
      <trkpt lat="35.264421000" lon="-106.473146000">
        <ele>2014.310</ele>
        <time>2013-03-09T19:08:14.777Z</time>
        <name>WPT.268</name>
      </trkpt>
      <trkpt lat="35.264438000" lon="-106.473032000">
        <ele>2016.070</ele>
        <time>2013-03-09T19:08:23.932Z</time>
        <name>WPT.269</name>
      </trkpt>
      <trkpt lat="35.264387000" lon="-106.472928000">
        <ele>2021.410</ele>
        <time>2013-03-09T19:08:31.054Z</time>
        <name>WPT.270</name>
      </trkpt>
      <trkpt lat="35.264387000" lon="-106.472928000">
        <ele>2029.490</ele>
        <time>2013-03-09T19:08:48.210Z</time>
        <name>WPT.271</name>
      </trkpt>
      <trkpt lat="35.264412000" lon="-106.472814000">
        <ele>2028.340</ele>
        <time>2013-03-09T19:09:14.595Z</time>
        <name>WPT.272</name>
      </trkpt>
      <trkpt lat="35.264320000" lon="-106.472721000">
        <ele>2027.100</ele>
        <time>2013-03-09T19:09:21.774Z</time>
        <name>WPT.273</name>
      </trkpt>
      <trkpt lat="35.264247000" lon="-106.472641000">
        <ele>2028.370</ele>
        <time>2013-03-09T19:09:27.059Z</time>
        <name>WPT.274</name>
      </trkpt>
      <trkpt lat="35.264247000" lon="-106.472641000">
        <ele>2031.600</ele>
        <time>2013-03-09T19:09:58.221Z</time>
        <name>WPT.275</name>
      </trkpt>
      <trkpt lat="35.264106000" lon="-106.472499000">
        <ele>2030.590</ele>
        <time>2013-03-09T19:10:22.520Z</time>
        <name>WPT.276</name>
      </trkpt>
      <trkpt lat="35.264082000" lon="-106.472379000">
        <ele>2030.690</ele>
        <time>2013-03-09T19:10:28.237Z</time>
        <name>WPT.277</name>
      </trkpt>
      <trkpt lat="35.264082000" lon="-106.472379000">
        <ele>2035.950</ele>
        <time>2013-03-09T19:10:57.357Z</time>
        <name>WPT.278</name>
      </trkpt>
      <trkpt lat="35.264043000" lon="-106.472157000">
        <ele>2033.790</ele>
        <time>2013-03-09T19:12:00.971Z</time>
        <name>WPT.279</name>
      </trkpt>
      <trkpt lat="35.264041000" lon="-106.472038000">
        <ele>2034.400</ele>
        <time>2013-03-09T19:12:07.661Z</time>
        <name>WPT.280</name>
      </trkpt>
      <trkpt lat="35.264037000" lon="-106.471921000">
        <ele>2038.230</ele>
        <time>2013-03-09T19:12:16.165Z</time>
        <name>WPT.281</name>
      </trkpt>
      <trkpt lat="35.263969000" lon="-106.471795000">
        <ele>2042.480</ele>
        <time>2013-03-09T19:12:27.078Z</time>
        <name>WPT.282</name>
      </trkpt>
      <trkpt lat="35.263969000" lon="-106.471795000">
        <ele>2045.740</ele>
        <time>2013-03-09T19:12:42.409Z</time>
        <name>WPT.283</name>
      </trkpt>
      <trkpt lat="35.263944000" lon="-106.471639000">
        <ele>2044.730</ele>
        <time>2013-03-09T19:13:33.969Z</time>
        <name>WPT.284</name>
      </trkpt>
      <trkpt lat="35.263904000" lon="-106.471537000">
        <ele>2044.340</ele>
        <time>2013-03-09T19:13:38.364Z</time>
        <name>WPT.285</name>
      </trkpt>
      <trkpt lat="35.263873000" lon="-106.471433000">
        <ele>2046.380</ele>
        <time>2013-03-09T19:13:42.277Z</time>
        <name>WPT.286</name>
      </trkpt>
      <trkpt lat="35.263943000" lon="-106.471315000">
        <ele>2049.620</ele>
        <time>2013-03-09T19:13:47.107Z</time>
        <name>WPT.287</name>
      </trkpt>
      <trkpt lat="35.263943000" lon="-106.471315000">
        <ele>2052.610</ele>
        <time>2013-03-09T19:14:00.225Z</time>
        <name>WPT.288</name>
      </trkpt>
      <trkpt lat="35.263936000" lon="-106.471177000">
        <ele>2051.620</ele>
        <time>2013-03-09T19:14:47.704Z</time>
        <name>WPT.289</name>
      </trkpt>
      <trkpt lat="35.263911000" lon="-106.471059000">
        <ele>2051.670</ele>
        <time>2013-03-09T19:14:54.521Z</time>
        <name>WPT.290</name>
      </trkpt>
      <trkpt lat="35.263872000" lon="-106.470957000">
        <ele>2054.540</ele>
        <time>2013-03-09T19:15:00.139Z</time>
        <name>WPT.291</name>
      </trkpt>
      <trkpt lat="35.263872000" lon="-106.470957000">
        <ele>2059.360</ele>
        <time>2013-03-09T19:15:07.937Z</time>
        <name>WPT.292</name>
      </trkpt>
      <trkpt lat="35.263836000" lon="-106.470853000">
        <ele>2056.630</ele>
        <time>2013-03-09T19:15:21.112Z</time>
        <name>WPT.293</name>
      </trkpt>
      <trkpt lat="35.263836000" lon="-106.470853000">
        <ele>2055.200</ele>
        <time>2013-03-09T19:15:22.185Z</time>
        <name>WPT.294</name>
      </trkpt>
      <trkpt lat="35.263894000" lon="-106.470745000">
        <ele>2053.890</ele>
        <time>2013-03-09T19:15:47.033Z</time>
        <name>WPT.295</name>
      </trkpt>
      <trkpt lat="35.263897000" lon="-106.470625000">
        <ele>2053.820</ele>
        <time>2013-03-09T19:15:54.096Z</time>
        <name>WPT.296</name>
      </trkpt>
      <trkpt lat="35.263897000" lon="-106.470625000">
        <ele>2052.410</ele>
        <time>2013-03-09T19:17:03.254Z</time>
        <name>WPT.297</name>
      </trkpt>
      <trkpt lat="35.263886000" lon="-106.470485000">
        <ele>2052.130</ele>
        <time>2013-03-09T19:17:16.274Z</time>
        <name>WPT.298</name>
      </trkpt>
      <trkpt lat="35.263900000" lon="-106.470373000">
        <ele>2053.710</ele>
        <time>2013-03-09T19:17:22.768Z</time>
        <name>WPT.299</name>
      </trkpt>
      <trkpt lat="35.263829000" lon="-106.470303000">
        <ele>2058.420</ele>
        <time>2013-03-09T19:17:29.066Z</time>
        <name>WPT.300</name>
      </trkpt>
      <trkpt lat="35.263829000" lon="-106.470303000">
        <ele>2066.790</ele>
        <time>2013-03-09T19:17:43.230Z</time>
        <name>WPT.301</name>
      </trkpt>
      <trkpt lat="35.263801000" lon="-106.470184000">
        <ele>2065.680</ele>
        <time>2013-03-09T19:17:52.081Z</time>
        <name>WPT.302</name>
      </trkpt>
      <trkpt lat="35.263801000" lon="-106.470184000">
        <ele>2062.370</ele>
        <time>2013-03-09T19:22:40.146Z</time>
        <name>WPT.303</name>
      </trkpt>
      <trkpt lat="35.263721000" lon="-106.470123000">
        <ele>2061.950</ele>
        <time>2013-03-09T19:22:56.119Z</time>
        <name>WPT.304</name>
      </trkpt>
      <trkpt lat="35.263721000" lon="-106.470123000">
        <ele>2060.860</ele>
        <time>2013-03-09T19:23:27.383Z</time>
        <name>WPT.305</name>
      </trkpt>
      <trkpt lat="35.263635000" lon="-106.470019000">
        <ele>2060.240</ele>
        <time>2013-03-09T19:23:50.980Z</time>
        <name>WPT.306</name>
      </trkpt>
      <trkpt lat="35.263559000" lon="-106.469949000">
        <ele>2062.070</ele>
        <time>2013-03-09T19:23:59.213Z</time>
        <name>WPT.307</name>
      </trkpt>
      <trkpt lat="35.263489000" lon="-106.469859000">
        <ele>2067.980</ele>
        <time>2013-03-09T19:24:10.945Z</time>
        <name>WPT.308</name>
      </trkpt>
      <trkpt lat="35.263399000" lon="-106.469856000">
        <ele>2075.230</ele>
        <time>2013-03-09T19:24:25.045Z</time>
        <name>WPT.309</name>
      </trkpt>
      <trkpt lat="35.263294000" lon="-106.469901000">
        <ele>2081.760</ele>
        <time>2013-03-09T19:24:35.767Z</time>
        <name>WPT.310</name>
      </trkpt>
      <trkpt lat="35.263207000" lon="-106.469863000">
        <ele>2087.360</ele>
        <time>2013-03-09T19:24:42.374Z</time>
        <name>WPT.311</name>
      </trkpt>
      <trkpt lat="35.263120000" lon="-106.469809000">
        <ele>2090.680</ele>
        <time>2013-03-09T19:24:51.188Z</time>
        <name>WPT.312</name>
      </trkpt>
      <trkpt lat="35.263025000" lon="-106.469715000">
        <ele>2091.580</ele>
        <time>2013-03-09T19:25:03.208Z</time>
        <name>WPT.313</name>
      </trkpt>
      <trkpt lat="35.263025000" lon="-106.469715000">
        <ele>2090.650</ele>
        <time>2013-03-09T19:25:20.375Z</time>
        <name>WPT.314</name>
      </trkpt>
      <trkpt lat="35.262915000" lon="-106.469668000">
        <ele>2089.870</ele>
        <time>2013-03-09T19:25:37.173Z</time>
        <name>WPT.315</name>
      </trkpt>
      <trkpt lat="35.262915000" lon="-106.469668000">
        <ele>2088.720</ele>
        <time>2013-03-09T19:25:53.447Z</time>
        <name>WPT.316</name>
      </trkpt>
      <trkpt lat="35.262831000" lon="-106.469581000">
        <ele>2088.100</ele>
        <time>2013-03-09T19:26:01.308Z</time>
        <name>WPT.317</name>
      </trkpt>
      <trkpt lat="35.262831000" lon="-106.469581000">
        <ele>2086.170</ele>
        <time>2013-03-09T19:26:37.391Z</time>
        <name>WPT.318</name>
      </trkpt>
      <trkpt lat="35.262785000" lon="-106.469472000">
        <ele>2084.780</ele>
        <time>2013-03-09T19:27:05.141Z</time>
        <name>WPT.319</name>
      </trkpt>
      <trkpt lat="35.262785000" lon="-106.469472000">
        <ele>2084.100</ele>
        <time>2013-03-09T19:27:29.218Z</time>
        <name>WPT.320</name>
      </trkpt>
      <trkpt lat="35.262745000" lon="-106.469337000">
        <ele>2083.370</ele>
        <time>2013-03-09T19:27:39.192Z</time>
        <name>WPT.321</name>
      </trkpt>
      <trkpt lat="35.262745000" lon="-106.469337000">
        <ele>2081.980</ele>
        <time>2013-03-09T19:27:45.223Z</time>
        <name>WPT.322</name>
      </trkpt>
      <trkpt lat="35.262620000" lon="-106.469243000">
        <ele>2081.420</ele>
        <time>2013-03-09T19:28:28.233Z</time>
        <name>WPT.323</name>
      </trkpt>
      <trkpt lat="35.262508000" lon="-106.469204000">
        <ele>2084.700</ele>
        <time>2013-03-09T19:28:44.722Z</time>
        <name>WPT.324</name>
      </trkpt>
      <trkpt lat="35.262434000" lon="-106.469119000">
        <ele>2094.560</ele>
        <time>2013-03-09T19:28:55.666Z</time>
        <name>WPT.325</name>
      </trkpt>
      <trkpt lat="35.262354000" lon="-106.469056000">
        <ele>2105.760</ele>
        <time>2013-03-09T19:29:05.539Z</time>
        <name>WPT.326</name>
      </trkpt>
      <trkpt lat="35.262291000" lon="-106.468965000">
        <ele>2112.720</ele>
        <time>2013-03-09T19:29:13.951Z</time>
        <name>WPT.327</name>
      </trkpt>
      <trkpt lat="35.262237000" lon="-106.468876000">
        <ele>2116.360</ele>
        <time>2013-03-09T19:29:22.047Z</time>
        <name>WPT.328</name>
      </trkpt>
      <trkpt lat="35.262216000" lon="-106.468759000">
        <ele>2118.960</ele>
        <time>2013-03-09T19:29:35.452Z</time>
        <name>WPT.329</name>
      </trkpt>
      <trkpt lat="35.262229000" lon="-106.468649000">
        <ele>2121.480</ele>
        <time>2013-03-09T19:29:46.570Z</time>
        <name>WPT.330</name>
      </trkpt>
      <trkpt lat="35.262285000" lon="-106.468558000">
        <ele>2124.110</ele>
        <time>2013-03-09T19:29:56.740Z</time>
        <name>WPT.331</name>
      </trkpt>
      <trkpt lat="35.262309000" lon="-106.468448000">
        <ele>2126.950</ele>
        <time>2013-03-09T19:30:08.569Z</time>
        <name>WPT.332</name>
      </trkpt>
      <trkpt lat="35.262352000" lon="-106.468345000">
        <ele>2129.400</ele>
        <time>2013-03-09T19:30:19.778Z</time>
        <name>WPT.333</name>
      </trkpt>
      <trkpt lat="35.262376000" lon="-106.468237000">
        <ele>2130.710</ele>
        <time>2013-03-09T19:30:30.044Z</time>
        <name>WPT.334</name>
      </trkpt>
      <trkpt lat="35.262423000" lon="-106.468132000">
        <ele>2130.990</ele>
        <time>2013-03-09T19:30:42.669Z</time>
        <name>WPT.335</name>
      </trkpt>
      <trkpt lat="35.262453000" lon="-106.468018000">
        <ele>2130.840</ele>
        <time>2013-03-09T19:30:55.190Z</time>
        <name>WPT.336</name>
      </trkpt>
      <trkpt lat="35.262453000" lon="-106.468018000">
        <ele>2129.510</ele>
        <time>2013-03-09T19:34:46.642Z</time>
        <name>WPT.337</name>
      </trkpt>
      <trkpt lat="35.262560000" lon="-106.467936000">
        <ele>2128.060</ele>
        <time>2013-03-09T19:35:39.456Z</time>
        <name>WPT.338</name>
      </trkpt>
      <trkpt lat="35.262642000" lon="-106.467983000">
        <ele>2129.430</ele>
        <time>2013-03-09T19:36:04.102Z</time>
        <name>WPT.339</name>
      </trkpt>
      <trkpt lat="35.262642000" lon="-106.467983000">
        <ele>2136.790</ele>
        <time>2013-03-09T19:36:18.183Z</time>
        <name>WPT.340</name>
      </trkpt>
      <trkpt lat="35.262740000" lon="-106.468071000">
        <ele>2135.850</ele>
        <time>2013-03-09T19:36:47.095Z</time>
        <name>WPT.341</name>
      </trkpt>
      <trkpt lat="35.262740000" lon="-106.468071000">
        <ele>2132.370</ele>
        <time>2013-03-09T19:40:40.830Z</time>
        <name>WPT.342</name>
      </trkpt>
      <trkpt lat="35.262901000" lon="-106.468193000">
        <ele>2132.630</ele>
        <time>2013-03-09T19:41:00.096Z</time>
        <name>WPT.343</name>
      </trkpt>
      <trkpt lat="35.262901000" lon="-106.468193000">
        <ele>2131.010</ele>
        <time>2013-03-09T19:41:52.186Z</time>
        <name>WPT.344</name>
      </trkpt>
      <trkpt lat="35.263022000" lon="-106.468293000">
        <ele>2130.300</ele>
        <time>2013-03-09T19:42:11.315Z</time>
        <name>WPT.345</name>
      </trkpt>
      <trkpt lat="35.263116000" lon="-106.468334000">
        <ele>2131.640</ele>
        <time>2013-03-09T19:42:22.321Z</time>
        <name>WPT.346</name>
      </trkpt>
      <trkpt lat="35.263210000" lon="-106.468333000">
        <ele>2135.740</ele>
        <time>2013-03-09T19:42:32.673Z</time>
        <name>WPT.347</name>
      </trkpt>
      <trkpt lat="35.263249000" lon="-106.468228000">
        <ele>2139.860</ele>
        <time>2013-03-09T19:42:44.135Z</time>
        <name>WPT.348</name>
      </trkpt>
      <trkpt lat="35.263249000" lon="-106.468228000">
        <ele>2139.910</ele>
        <time>2013-03-09T19:42:49.021Z</time>
        <name>WPT.349</name>
      </trkpt>
      <trkpt lat="35.263358000" lon="-106.468252000">
        <ele>2138.230</ele>
        <time>2013-03-09T19:43:08.158Z</time>
        <name>WPT.350</name>
      </trkpt>
      <trkpt lat="35.263444000" lon="-106.468196000">
        <ele>2136.090</ele>
        <time>2013-03-09T19:43:19.956Z</time>
        <name>WPT.351</name>
      </trkpt>
      <trkpt lat="35.263537000" lon="-106.468172000">
        <ele>2132.680</ele>
        <time>2013-03-09T19:43:27.976Z</time>
        <name>WPT.352</name>
      </trkpt>
      <trkpt lat="35.263624000" lon="-106.468145000">
        <ele>2130.340</ele>
        <time>2013-03-09T19:43:34.096Z</time>
        <name>WPT.353</name>
      </trkpt>
      <trkpt lat="35.263624000" lon="-106.468145000">
        <ele>2132.320</ele>
        <time>2013-03-09T19:43:55.292Z</time>
        <name>WPT.354</name>
      </trkpt>
      <trkpt lat="35.263712000" lon="-106.468204000">
        <ele>2131.520</ele>
        <time>2013-03-09T19:44:27.577Z</time>
        <name>WPT.355</name>
      </trkpt>
      <trkpt lat="35.263856000" lon="-106.468202000">
        <ele>2129.750</ele>
        <time>2013-03-09T19:44:55.135Z</time>
        <name>WPT.356</name>
      </trkpt>
      <trkpt lat="35.263856000" lon="-106.468202000">
        <ele>2127.490</ele>
        <time>2013-03-09T19:44:55.235Z</time>
        <name>WPT.357</name>
      </trkpt>
      <trkpt lat="35.263959000" lon="-106.468219000">
        <ele>2126.040</ele>
        <time>2013-03-09T19:45:32.553Z</time>
        <name>WPT.358</name>
      </trkpt>
      <trkpt lat="35.264034000" lon="-106.468298000">
        <ele>2125.530</ele>
        <time>2013-03-09T19:45:41.704Z</time>
        <name>WPT.359</name>
      </trkpt>
      <trkpt lat="35.264125000" lon="-106.468336000">
        <ele>2124.670</ele>
        <time>2013-03-09T19:45:49.454Z</time>
        <name>WPT.360</name>
      </trkpt>
      <trkpt lat="35.264213000" lon="-106.468372000">
        <ele>2123.970</ele>
        <time>2013-03-09T19:45:58.099Z</time>
        <name>WPT.361</name>
      </trkpt>
      <trkpt lat="35.264308000" lon="-106.468394000">
        <ele>2123.940</ele>
        <time>2013-03-09T19:46:08.268Z</time>
        <name>WPT.362</name>
      </trkpt>
      <trkpt lat="35.264393000" lon="-106.468453000">
        <ele>2123.840</ele>
        <time>2013-03-09T19:46:23.131Z</time>
        <name>WPT.363</name>
      </trkpt>
      <trkpt lat="35.264393000" lon="-106.468453000">
        <ele>2121.980</ele>
        <time>2013-03-09T19:46:25.213Z</time>
        <name>WPT.364</name>
      </trkpt>
      <trkpt lat="35.264473000" lon="-106.468516000">
        <ele>2120.820</ele>
        <time>2013-03-09T19:46:39.389Z</time>
        <name>WPT.365</name>
      </trkpt>
      <trkpt lat="35.264557000" lon="-106.468652000">
        <ele>2120.410</ele>
        <time>2013-03-09T19:46:53.492Z</time>
        <name>WPT.366</name>
      </trkpt>
      <trkpt lat="35.264605000" lon="-106.468759000">
        <ele>2119.980</ele>
        <time>2013-03-09T19:47:03.136Z</time>
        <name>WPT.367</name>
      </trkpt>
      <trkpt lat="35.264685000" lon="-106.468830000">
        <ele>2119.080</ele>
        <time>2013-03-09T19:47:11.792Z</time>
        <name>WPT.368</name>
      </trkpt>
      <trkpt lat="35.264773000" lon="-106.468885000">
        <ele>2117.360</ele>
        <time>2013-03-09T19:47:19.519Z</time>
        <name>WPT.369</name>
      </trkpt>
      <trkpt lat="35.264858000" lon="-106.468932000">
        <ele>2115.660</ele>
        <time>2013-03-09T19:47:27.001Z</time>
        <name>WPT.370</name>
      </trkpt>
      <trkpt lat="35.264948000" lon="-106.468996000">
        <ele>2114.980</ele>
        <time>2013-03-09T19:47:36.054Z</time>
        <name>WPT.371</name>
      </trkpt>
      <trkpt lat="35.265025000" lon="-106.469077000">
        <ele>2115.240</ele>
        <time>2013-03-09T19:47:44.372Z</time>
        <name>WPT.372</name>
      </trkpt>
      <trkpt lat="35.265092000" lon="-106.469153000">
        <ele>2115.880</ele>
        <time>2013-03-09T19:47:51.032Z</time>
        <name>WPT.373</name>
      </trkpt>
      <trkpt lat="35.265152000" lon="-106.469269000">
        <ele>2116.430</ele>
        <time>2013-03-09T19:48:00.242Z</time>
        <name>WPT.374</name>
      </trkpt>
      <trkpt lat="35.265252000" lon="-106.469275000">
        <ele>2116.790</ele>
        <time>2013-03-09T19:48:08.338Z</time>
        <name>WPT.375</name>
      </trkpt>
      <trkpt lat="35.265252000" lon="-106.469275000">
        <ele>2116.190</ele>
        <time>2013-03-09T19:50:04.536Z</time>
        <name>WPT.376</name>
      </trkpt>
      <trkpt lat="35.265383000" lon="-106.469284000">
        <ele>2115.130</ele>
        <time>2013-03-09T19:51:03.234Z</time>
        <name>WPT.377</name>
      </trkpt>
      <trkpt lat="35.265449000" lon="-106.469362000">
        <ele>2114.570</ele>
        <time>2013-03-09T19:51:12.747Z</time>
        <name>WPT.378</name>
      </trkpt>
      <trkpt lat="35.265530000" lon="-106.469432000">
        <ele>2114.590</ele>
        <time>2013-03-09T19:51:23.641Z</time>
        <name>WPT.379</name>
      </trkpt>
      <trkpt lat="35.265628000" lon="-106.469438000">
        <ele>2114.980</ele>
        <time>2013-03-09T19:51:45.215Z</time>
        <name>WPT.380</name>
      </trkpt>
      <trkpt lat="35.265710000" lon="-106.469356000">
        <ele>2115.410</ele>
        <time>2013-03-09T19:52:08.696Z</time>
        <name>WPT.381</name>
      </trkpt>
      <trkpt lat="35.265744000" lon="-106.469245000">
        <ele>2115.330</ele>
        <time>2013-03-09T19:52:21.220Z</time>
        <name>WPT.382</name>
      </trkpt>
      <trkpt lat="35.265814000" lon="-106.469170000">
        <ele>2114.650</ele>
        <time>2013-03-09T19:52:33.493Z</time>
        <name>WPT.383</name>
      </trkpt>
      <trkpt lat="35.265898000" lon="-106.469103000">
        <ele>2113.320</ele>
        <time>2013-03-09T19:52:51.173Z</time>
        <name>WPT.384</name>
      </trkpt>
      <trkpt lat="35.265993000" lon="-106.469070000">
        <ele>2111.360</ele>
        <time>2013-03-09T19:53:08.472Z</time>
        <name>WPT.385</name>
      </trkpt>
      <trkpt lat="35.266079000" lon="-106.469039000">
        <ele>2109.310</ele>
        <time>2013-03-09T19:53:23.249Z</time>
        <name>WPT.386</name>
      </trkpt>
      <trkpt lat="35.266079000" lon="-106.469039000">
        <ele>2107.260</ele>
        <time>2013-03-09T19:53:33.203Z</time>
        <name>WPT.387</name>
      </trkpt>
      <trkpt lat="35.266159000" lon="-106.469110000">
        <ele>2106.770</ele>
        <time>2013-03-09T19:54:16.897Z</time>
        <name>WPT.388</name>
      </trkpt>
      <trkpt lat="35.266192000" lon="-106.469222000">
        <ele>2106.020</ele>
        <time>2013-03-09T19:54:31.730Z</time>
        <name>WPT.389</name>
      </trkpt>
      <trkpt lat="35.266286000" lon="-106.469260000">
        <ele>2105.170</ele>
        <time>2013-03-09T19:54:51.145Z</time>
        <name>WPT.390</name>
      </trkpt>
      <trkpt lat="35.266389000" lon="-106.469264000">
        <ele>2104.060</ele>
        <time>2013-03-09T19:55:10.110Z</time>
        <name>WPT.391</name>
      </trkpt>
      <trkpt lat="35.266424000" lon="-106.469158000">
        <ele>2102.440</ele>
        <time>2013-03-09T19:55:25.664Z</time>
        <name>WPT.392</name>
      </trkpt>
      <trkpt lat="35.266509000" lon="-106.469073000">
        <ele>2100.850</ele>
        <time>2013-03-09T19:55:45.740Z</time>
        <name>WPT.393</name>
      </trkpt>
      <trkpt lat="35.266595000" lon="-106.469037000">
        <ele>2099.310</ele>
        <time>2013-03-09T19:55:53.990Z</time>
        <name>WPT.394</name>
      </trkpt>
      <trkpt lat="35.266692000" lon="-106.469029000">
        <ele>2096.750</ele>
        <time>2013-03-09T19:56:02.779Z</time>
        <name>WPT.395</name>
      </trkpt>
      <trkpt lat="35.266782000" lon="-106.469057000">
        <ele>2093.430</ele>
        <time>2013-03-09T19:56:11.742Z</time>
        <name>WPT.396</name>
      </trkpt>
      <trkpt lat="35.266884000" lon="-106.469041000">
        <ele>2090.280</ele>
        <time>2013-03-09T19:56:21.658Z</time>
        <name>WPT.397</name>
      </trkpt>
      <trkpt lat="35.266988000" lon="-106.469032000">
        <ele>2087.300</ele>
        <time>2013-03-09T19:56:32.914Z</time>
        <name>WPT.398</name>
      </trkpt>
      <trkpt lat="35.267083000" lon="-106.469061000">
        <ele>2084.620</ele>
        <time>2013-03-09T19:56:49.537Z</time>
        <name>WPT.399</name>
      </trkpt>
      <trkpt lat="35.267160000" lon="-106.469118000">
        <ele>2082.920</ele>
        <time>2013-03-09T19:57:01.609Z</time>
        <name>WPT.400</name>
      </trkpt>
      <trkpt lat="35.267265000" lon="-106.469108000">
        <ele>2082.130</ele>
        <time>2013-03-09T19:57:19.235Z</time>
        <name>WPT.401</name>
      </trkpt>
      <trkpt lat="35.267360000" lon="-106.469072000">
        <ele>2081.620</ele>
        <time>2013-03-09T19:57:32.669Z</time>
        <name>WPT.402</name>
      </trkpt>
      <trkpt lat="35.267430000" lon="-106.469145000">
        <ele>2080.800</ele>
        <time>2013-03-09T19:57:40.386Z</time>
        <name>WPT.403</name>
      </trkpt>
      <trkpt lat="35.267495000" lon="-106.469228000">
        <ele>2079.390</ele>
        <time>2013-03-09T19:57:51.681Z</time>
        <name>WPT.404</name>
      </trkpt>
      <trkpt lat="35.267583000" lon="-106.469167000">
        <ele>2077.790</ele>
        <time>2013-03-09T19:58:06.100Z</time>
        <name>WPT.405</name>
      </trkpt>
      <trkpt lat="35.267583000" lon="-106.469167000">
        <ele>2076.170</ele>
        <time>2013-03-09T19:58:06.200Z</time>
        <name>WPT.406</name>
      </trkpt>
      <trkpt lat="35.267690000" lon="-106.469201000">
        <ele>2075.780</ele>
        <time>2013-03-09T19:58:12.187Z</time>
        <name>WPT.407</name>
      </trkpt>
      <trkpt lat="35.267690000" lon="-106.469201000">
        <ele>2074.670</ele>
        <time>2013-03-09T19:58:24.224Z</time>
        <name>WPT.408</name>
      </trkpt>
      <trkpt lat="35.267755000" lon="-106.469301000">
        <ele>2073.200</ele>
        <time>2013-03-09T19:58:53.305Z</time>
        <name>WPT.409</name>
      </trkpt>
      <trkpt lat="35.267780000" lon="-106.469410000">
        <ele>2072.270</ele>
        <time>2013-03-09T19:59:02.095Z</time>
        <name>WPT.410</name>
      </trkpt>
      <trkpt lat="35.267870000" lon="-106.469440000">
        <ele>2070.510</ele>
        <time>2013-03-09T19:59:11.998Z</time>
        <name>WPT.411</name>
      </trkpt>
      <trkpt lat="35.267913000" lon="-106.469552000">
        <ele>2068.610</ele>
        <time>2013-03-09T19:59:22.752Z</time>
        <name>WPT.412</name>
      </trkpt>
      <trkpt lat="35.267969000" lon="-106.469648000">
        <ele>2067.540</ele>
        <time>2013-03-09T19:59:32.064Z</time>
        <name>WPT.413</name>
      </trkpt>
      <trkpt lat="35.268014000" lon="-106.469749000">
        <ele>2067.410</ele>
        <time>2013-03-09T19:59:40.800Z</time>
        <name>WPT.414</name>
      </trkpt>
      <trkpt lat="35.267993000" lon="-106.469894000">
        <ele>2068.020</ele>
        <time>2013-03-09T19:59:50.875Z</time>
        <name>WPT.415</name>
      </trkpt>
      <trkpt lat="35.268025000" lon="-106.470008000">
        <ele>2068.910</ele>
        <time>2013-03-09T19:59:58.201Z</time>
        <name>WPT.416</name>
      </trkpt>
      <trkpt lat="35.268001000" lon="-106.470130000">
        <ele>2069.260</ele>
        <time>2013-03-09T20:00:06.774Z</time>
        <name>WPT.417</name>
      </trkpt>
      <trkpt lat="35.268061000" lon="-106.470221000">
        <ele>2068.620</ele>
        <time>2013-03-09T20:00:15.988Z</time>
        <name>WPT.418</name>
      </trkpt>
      <trkpt lat="35.268101000" lon="-106.470326000">
        <ele>2067.100</ele>
        <time>2013-03-09T20:00:28.325Z</time>
        <name>WPT.419</name>
      </trkpt>
      <trkpt lat="35.268127000" lon="-106.470432000">
        <ele>2065.230</ele>
        <time>2013-03-09T20:00:42.303Z</time>
        <name>WPT.420</name>
      </trkpt>
      <trkpt lat="35.268182000" lon="-106.470530000">
        <ele>2063.700</ele>
        <time>2013-03-09T20:00:53.876Z</time>
        <name>WPT.421</name>
      </trkpt>
      <trkpt lat="35.268254000" lon="-106.470617000">
        <ele>2062.690</ele>
        <time>2013-03-09T20:01:05.105Z</time>
        <name>WPT.422</name>
      </trkpt>
      <trkpt lat="35.268363000" lon="-106.470694000">
        <ele>2061.840</ele>
        <time>2013-03-09T20:01:22.148Z</time>
        <name>WPT.423</name>
      </trkpt>
      <trkpt lat="35.268363000" lon="-106.470694000">
        <ele>2059.930</ele>
        <time>2013-03-09T20:01:27.199Z</time>
        <name>WPT.424</name>
      </trkpt>
      <trkpt lat="35.268425000" lon="-106.470777000">
        <ele>2059.060</ele>
        <time>2013-03-09T20:01:47.285Z</time>
        <name>WPT.425</name>
      </trkpt>
      <trkpt lat="35.268475000" lon="-106.470875000">
        <ele>2058.290</ele>
        <time>2013-03-09T20:02:04.592Z</time>
        <name>WPT.426</name>
      </trkpt>
      <trkpt lat="35.268546000" lon="-106.470945000">
        <ele>2056.900</ele>
        <time>2013-03-09T20:02:19.931Z</time>
        <name>WPT.427</name>
      </trkpt>
      <trkpt lat="35.268594000" lon="-106.471045000">
        <ele>2054.510</ele>
        <time>2013-03-09T20:02:33.846Z</time>
        <name>WPT.428</name>
      </trkpt>
      <trkpt lat="35.268678000" lon="-106.471098000">
        <ele>2051.760</ele>
        <time>2013-03-09T20:02:48.412Z</time>
        <name>WPT.429</name>
      </trkpt>
      <trkpt lat="35.268761000" lon="-106.471151000">
        <ele>2049.040</ele>
        <time>2013-03-09T20:03:01.827Z</time>
        <name>WPT.430</name>
      </trkpt>
      <trkpt lat="35.268843000" lon="-106.471203000">
        <ele>2046.200</ele>
        <time>2013-03-09T20:03:12.494Z</time>
        <name>WPT.431</name>
      </trkpt>
      <trkpt lat="35.268929000" lon="-106.471254000">
        <ele>2043.770</ele>
        <time>2013-03-09T20:03:22.204Z</time>
        <name>WPT.432</name>
      </trkpt>
      <trkpt lat="35.269016000" lon="-106.471285000">
        <ele>2042.480</ele>
        <time>2013-03-09T20:03:30.207Z</time>
        <name>WPT.433</name>
      </trkpt>
      <trkpt lat="35.269108000" lon="-106.471296000">
        <ele>2042.200</ele>
        <time>2013-03-09T20:03:39.004Z</time>
        <name>WPT.434</name>
      </trkpt>
      <trkpt lat="35.269202000" lon="-106.471301000">
        <ele>2042.500</ele>
        <time>2013-03-09T20:03:48.537Z</time>
        <name>WPT.435</name>
      </trkpt>
      <trkpt lat="35.269289000" lon="-106.471336000">
        <ele>2043.060</ele>
        <time>2013-03-09T20:04:00.133Z</time>
        <name>WPT.436</name>
      </trkpt>
      <trkpt lat="35.269372000" lon="-106.471404000">
        <ele>2043.250</ele>
        <time>2013-03-09T20:04:13.469Z</time>
        <name>WPT.437</name>
      </trkpt>
      <trkpt lat="35.269462000" lon="-106.471436000">
        <ele>2042.450</ele>
        <time>2013-03-09T20:04:23.652Z</time>
        <name>WPT.438</name>
      </trkpt>
      <trkpt lat="35.269551000" lon="-106.471422000">
        <ele>2041.010</ele>
        <time>2013-03-09T20:04:33.781Z</time>
        <name>WPT.439</name>
      </trkpt>
      <trkpt lat="35.269643000" lon="-106.471392000">
        <ele>2039.600</ele>
        <time>2013-03-09T20:04:43.705Z</time>
        <name>WPT.440</name>
      </trkpt>
      <trkpt lat="35.269716000" lon="-106.471322000">
        <ele>2038.020</ele>
        <time>2013-03-09T20:04:52.245Z</time>
        <name>WPT.441</name>
      </trkpt>
      <trkpt lat="35.269783000" lon="-106.471238000">
        <ele>2035.920</ele>
        <time>2013-03-09T20:05:00.558Z</time>
        <name>WPT.442</name>
      </trkpt>
      <trkpt lat="35.269781000" lon="-106.471127000">
        <ele>2033.720</ele>
        <time>2013-03-09T20:05:08.943Z</time>
        <name>WPT.443</name>
      </trkpt>
      <trkpt lat="35.269866000" lon="-106.471163000">
        <ele>2031.860</ele>
        <time>2013-03-09T20:05:19.705Z</time>
        <name>WPT.444</name>
      </trkpt>
      <trkpt lat="35.269911000" lon="-106.471275000">
        <ele>2030.160</ele>
        <time>2013-03-09T20:05:32.473Z</time>
        <name>WPT.445</name>
      </trkpt>
      <trkpt lat="35.269955000" lon="-106.471377000">
        <ele>2028.620</ele>
        <time>2013-03-09T20:05:42.933Z</time>
        <name>WPT.446</name>
      </trkpt>
      <trkpt lat="35.270040000" lon="-106.471468000">
        <ele>2027.670</ele>
        <time>2013-03-09T20:05:54.820Z</time>
        <name>WPT.447</name>
      </trkpt>
      <trkpt lat="35.270130000" lon="-106.471446000">
        <ele>2027.680</ele>
        <time>2013-03-09T20:06:05.637Z</time>
        <name>WPT.448</name>
      </trkpt>
      <trkpt lat="35.270213000" lon="-106.471516000">
        <ele>2028.600</ele>
        <time>2013-03-09T20:06:16.156Z</time>
        <name>WPT.449</name>
      </trkpt>
      <trkpt lat="35.270320000" lon="-106.471571000">
        <ele>2029.820</ele>
        <time>2013-03-09T20:06:31.251Z</time>
        <name>WPT.450</name>
      </trkpt>
      <trkpt lat="35.270320000" lon="-106.471571000">
        <ele>2028.200</ele>
        <time>2013-03-09T20:07:28.198Z</time>
        <name>WPT.451</name>
      </trkpt>
      <trkpt lat="35.270438000" lon="-106.471670000">
        <ele>2027.450</ele>
        <time>2013-03-09T20:08:34.044Z</time>
        <name>WPT.452</name>
      </trkpt>
      <trkpt lat="35.270534000" lon="-106.471687000">
        <ele>2025.230</ele>
        <time>2013-03-09T20:08:41.021Z</time>
        <name>WPT.453</name>
      </trkpt>
      <trkpt lat="35.270610000" lon="-106.471773000">
        <ele>2019.740</ele>
        <time>2013-03-09T20:08:48.783Z</time>
        <name>WPT.454</name>
      </trkpt>
      <trkpt lat="35.270685000" lon="-106.471845000">
        <ele>2013.370</ele>
        <time>2013-03-09T20:08:57.519Z</time>
        <name>WPT.455</name>
      </trkpt>
      <trkpt lat="35.270742000" lon="-106.471937000">
        <ele>2009.590</ele>
        <time>2013-03-09T20:09:05.707Z</time>
        <name>WPT.456</name>
      </trkpt>
      <trkpt lat="35.270731000" lon="-106.472050000">
        <ele>2008.430</ele>
        <time>2013-03-09T20:09:13.148Z</time>
        <name>WPT.457</name>
      </trkpt>
      <trkpt lat="35.270705000" lon="-106.472159000">
        <ele>2008.230</ele>
        <time>2013-03-09T20:09:20.579Z</time>
        <name>WPT.458</name>
      </trkpt>
      <trkpt lat="35.270673000" lon="-106.472279000">
        <ele>2007.890</ele>
        <time>2013-03-09T20:09:28.707Z</time>
        <name>WPT.459</name>
      </trkpt>
      <trkpt lat="35.270658000" lon="-106.472404000">
        <ele>2007.290</ele>
        <time>2013-03-09T20:09:35.256Z</time>
        <name>WPT.460</name>
      </trkpt>
      <trkpt lat="35.270658000" lon="-106.472404000">
        <ele>2006.360</ele>
        <time>2013-03-09T20:09:43.415Z</time>
        <name>WPT.461</name>
      </trkpt>
      <trkpt lat="35.270684000" lon="-106.472534000">
        <ele>2004.910</ele>
        <time>2013-03-09T20:09:55.107Z</time>
        <name>WPT.462</name>
      </trkpt>
      <trkpt lat="35.270684000" lon="-106.472534000">
        <ele>2004.090</ele>
        <time>2013-03-09T20:10:08.251Z</time>
        <name>WPT.463</name>
      </trkpt>
      <trkpt lat="35.270663000" lon="-106.472669000">
        <ele>2003.450</ele>
        <time>2013-03-09T20:10:18.158Z</time>
        <name>WPT.464</name>
      </trkpt>
      <trkpt lat="35.270663000" lon="-106.472669000">
        <ele>2002.160</ele>
        <time>2013-03-09T20:10:25.324Z</time>
        <name>WPT.465</name>
      </trkpt>
      <trkpt lat="35.270708000" lon="-106.472793000">
        <ele>2000.850</ele>
        <time>2013-03-09T20:10:51.818Z</time>
        <name>WPT.466</name>
      </trkpt>
      <trkpt lat="35.270737000" lon="-106.472930000">
        <ele>2001.450</ele>
        <time>2013-03-09T20:11:02.457Z</time>
        <name>WPT.467</name>
      </trkpt>
      <trkpt lat="35.270738000" lon="-106.473042000">
        <ele>2003.950</ele>
        <time>2013-03-09T20:11:07.561Z</time>
        <name>WPT.468</name>
      </trkpt>
      <trkpt lat="35.270793000" lon="-106.473137000">
        <ele>2006.790</ele>
        <time>2013-03-09T20:11:12.733Z</time>
        <name>WPT.469</name>
      </trkpt>
      <trkpt lat="35.270781000" lon="-106.473264000">
        <ele>2008.470</ele>
        <time>2013-03-09T20:11:19.008Z</time>
        <name>WPT.470</name>
      </trkpt>
      <trkpt lat="35.270747000" lon="-106.473375000">
        <ele>2009.070</ele>
        <time>2013-03-09T20:11:27.925Z</time>
        <name>WPT.471</name>
      </trkpt>
      <trkpt lat="35.270736000" lon="-106.473496000">
        <ele>2009.030</ele>
        <time>2013-03-09T20:11:39.495Z</time>
        <name>WPT.472</name>
      </trkpt>
      <trkpt lat="35.270818000" lon="-106.473562000">
        <ele>2008.840</ele>
        <time>2013-03-09T20:11:55.013Z</time>
        <name>WPT.473</name>
      </trkpt>
      <trkpt lat="35.270828000" lon="-106.473678000">
        <ele>2008.430</ele>
        <time>2013-03-09T20:12:07.670Z</time>
        <name>WPT.474</name>
      </trkpt>
      <trkpt lat="35.270889000" lon="-106.473765000">
        <ele>2007.110</ele>
        <time>2013-03-09T20:12:23.124Z</time>
        <name>WPT.475</name>
      </trkpt>
      <trkpt lat="35.270889000" lon="-106.473765000">
        <ele>2003.110</ele>
        <time>2013-03-09T20:12:39.290Z</time>
        <name>WPT.476</name>
      </trkpt>
      <trkpt lat="35.270994000" lon="-106.473852000">
        <ele>2002.340</ele>
        <time>2013-03-09T20:12:47.132Z</time>
        <name>WPT.477</name>
      </trkpt>
      <trkpt lat="35.270994000" lon="-106.473852000">
        <ele>1997.130</ele>
        <time>2013-03-09T20:13:15.242Z</time>
        <name>WPT.478</name>
      </trkpt>
      <trkpt lat="35.271055000" lon="-106.473983000">
        <ele>1996.510</ele>
        <time>2013-03-09T20:13:56.194Z</time>
        <name>WPT.479</name>
      </trkpt>
      <trkpt lat="35.271123000" lon="-106.474067000">
        <ele>1995.080</ele>
        <time>2013-03-09T20:14:09.740Z</time>
        <name>WPT.480</name>
      </trkpt>
      <trkpt lat="35.271184000" lon="-106.474156000">
        <ele>1992.330</ele>
        <time>2013-03-09T20:14:21.720Z</time>
        <name>WPT.481</name>
      </trkpt>
      <trkpt lat="35.271253000" lon="-106.474229000">
        <ele>1989.080</ele>
        <time>2013-03-09T20:14:34.924Z</time>
        <name>WPT.482</name>
      </trkpt>
      <trkpt lat="35.271324000" lon="-106.474302000">
        <ele>1986.220</ele>
        <time>2013-03-09T20:14:48.464Z</time>
        <name>WPT.483</name>
      </trkpt>
      <trkpt lat="35.271396000" lon="-106.474379000">
        <ele>1983.260</ele>
        <time>2013-03-09T20:15:00.183Z</time>
        <name>WPT.484</name>
      </trkpt>
      <trkpt lat="35.271480000" lon="-106.474437000">
        <ele>1980.020</ele>
        <time>2013-03-09T20:15:10.149Z</time>
        <name>WPT.485</name>
      </trkpt>
      <trkpt lat="35.271480000" lon="-106.474437000">
        <ele>1976.140</ele>
        <time>2013-03-09T20:15:19.284Z</time>
        <name>WPT.486</name>
      </trkpt>
      <trkpt lat="35.271577000" lon="-106.474439000">
        <ele>1975.140</ele>
        <time>2013-03-09T20:16:08.985Z</time>
        <name>WPT.487</name>
      </trkpt>
      <trkpt lat="35.271673000" lon="-106.474427000">
        <ele>1974.870</ele>
        <time>2013-03-09T20:16:21.120Z</time>
        <name>WPT.488</name>
      </trkpt>
      <trkpt lat="35.271763000" lon="-106.474386000">
        <ele>1974.250</ele>
        <time>2013-03-09T20:16:33.406Z</time>
        <name>WPT.489</name>
      </trkpt>
      <trkpt lat="35.271845000" lon="-106.474322000">
        <ele>1972.850</ele>
        <time>2013-03-09T20:16:48Z</time>
        <name>WPT.490</name>
      </trkpt>
      <trkpt lat="35.271930000" lon="-106.474282000">
        <ele>1970.670</ele>
        <time>2013-03-09T20:17:02.632Z</time>
        <name>WPT.491</name>
      </trkpt>
      <trkpt lat="35.272017000" lon="-106.474235000">
        <ele>1967.930</ele>
        <time>2013-03-09T20:17:16.425Z</time>
        <name>WPT.492</name>
      </trkpt>
      <trkpt lat="35.272107000" lon="-106.474185000">
        <ele>1964.660</ele>
        <time>2013-03-09T20:17:27.859Z</time>
        <name>WPT.493</name>
      </trkpt>
      <trkpt lat="35.272201000" lon="-106.474157000">
        <ele>1961.240</ele>
        <time>2013-03-09T20:17:38.220Z</time>
        <name>WPT.494</name>
      </trkpt>
      <trkpt lat="35.272299000" lon="-106.474157000">
        <ele>1957.320</ele>
        <time>2013-03-09T20:17:48.320Z</time>
        <name>WPT.495</name>
      </trkpt>
      <trkpt lat="35.272390000" lon="-106.474132000">
        <ele>1956.480</ele>
        <time>2013-03-09T20:17:58.149Z</time>
        <name>WPT.496</name>
      </trkpt>
      <trkpt lat="35.272390000" lon="-106.474132000">
        <ele>1954.500</ele>
        <time>2013-03-09T20:18:12.227Z</time>
        <name>WPT.497</name>
      </trkpt>
      <trkpt lat="35.272458000" lon="-106.474018000">
        <ele>1953.690</ele>
        <time>2013-03-09T20:18:55.429Z</time>
        <name>WPT.498</name>
      </trkpt>
      <trkpt lat="35.272503000" lon="-106.473922000">
        <ele>1952.750</ele>
        <time>2013-03-09T20:19:07.396Z</time>
        <name>WPT.499</name>
      </trkpt>
      <trkpt lat="35.272566000" lon="-106.473840000">
        <ele>1950.960</ele>
        <time>2013-03-09T20:19:20.423Z</time>
        <name>WPT.500</name>
      </trkpt>
      <trkpt lat="35.272636000" lon="-106.473769000">
        <ele>1948.480</ele>
        <time>2013-03-09T20:19:37.665Z</time>
        <name>WPT.501</name>
      </trkpt>
      <trkpt lat="35.272726000" lon="-106.473707000">
        <ele>1946.190</ele>
        <time>2013-03-09T20:19:56.009Z</time>
        <name>WPT.502</name>
      </trkpt>
      <trkpt lat="35.272796000" lon="-106.473637000">
        <ele>1944.100</ele>
        <time>2013-03-09T20:20:08.416Z</time>
        <name>WPT.503</name>
      </trkpt>
      <trkpt lat="35.272798000" lon="-106.473521000">
        <ele>1941.730</ele>
        <time>2013-03-09T20:20:21.403Z</time>
        <name>WPT.504</name>
      </trkpt>
      <trkpt lat="35.272836000" lon="-106.473422000">
        <ele>1938.940</ele>
        <time>2013-03-09T20:20:35.479Z</time>
        <name>WPT.505</name>
      </trkpt>
      <trkpt lat="35.272897000" lon="-106.473340000">
        <ele>1936.200</ele>
        <time>2013-03-09T20:20:53.056Z</time>
        <name>WPT.506</name>
      </trkpt>
      <trkpt lat="35.272973000" lon="-106.473279000">
        <ele>1933.990</ele>
        <time>2013-03-09T20:21:15.366Z</time>
        <name>WPT.507</name>
      </trkpt>
      <trkpt lat="35.273057000" lon="-106.473341000">
        <ele>1932.320</ele>
        <time>2013-03-09T20:21:36.951Z</time>
        <name>WPT.508</name>
      </trkpt>
      <trkpt lat="35.273128000" lon="-106.473417000">
        <ele>1931.160</ele>
        <time>2013-03-09T20:21:46.742Z</time>
        <name>WPT.509</name>
      </trkpt>
      <trkpt lat="35.273209000" lon="-106.473468000">
        <ele>1930.620</ele>
        <time>2013-03-09T20:21:54.118Z</time>
        <name>WPT.510</name>
      </trkpt>
      <trkpt lat="35.273209000" lon="-106.473468000">
        <ele>1930.320</ele>
        <time>2013-03-09T20:26:32.136Z</time>
        <name>WPT.511</name>
      </trkpt>
      <trkpt lat="35.273275000" lon="-106.473371000">
        <ele>1928.690</ele>
        <time>2013-03-09T20:26:49.832Z</time>
        <name>WPT.512</name>
      </trkpt>
      <trkpt lat="35.273372000" lon="-106.473349000">
        <ele>1929.150</ele>
        <time>2013-03-09T20:26:59.033Z</time>
        <name>WPT.513</name>
      </trkpt>
      <trkpt lat="35.273467000" lon="-106.473347000">
        <ele>1931.380</ele>
        <time>2013-03-09T20:27:05.802Z</time>
        <name>WPT.514</name>
      </trkpt>
      <trkpt lat="35.273560000" lon="-106.473321000">
        <ele>1933.690</ele>
        <time>2013-03-09T20:27:13.788Z</time>
        <name>WPT.515</name>
      </trkpt>
      <trkpt lat="35.273650000" lon="-106.473285000">
        <ele>1933.970</ele>
        <time>2013-03-09T20:27:23.657Z</time>
        <name>WPT.516</name>
      </trkpt>
      <trkpt lat="35.273712000" lon="-106.473190000">
        <ele>1931.960</ele>
        <time>2013-03-09T20:27:36.322Z</time>
        <name>WPT.517</name>
      </trkpt>
      <trkpt lat="35.273778000" lon="-106.473107000">
        <ele>1927.930</ele>
        <time>2013-03-09T20:27:46.542Z</time>
        <name>WPT.518</name>
      </trkpt>
      <trkpt lat="35.273868000" lon="-106.473063000">
        <ele>1922.880</ele>
        <time>2013-03-09T20:27:54.393Z</time>
        <name>WPT.519</name>
      </trkpt>
      <trkpt lat="35.273947000" lon="-106.473001000">
        <ele>1918.870</ele>
        <time>2013-03-09T20:28:01.524Z</time>
        <name>WPT.520</name>
      </trkpt>
      <trkpt lat="35.274041000" lon="-106.473040000">
        <ele>1917.150</ele>
        <time>2013-03-09T20:28:09.250Z</time>
        <name>WPT.521</name>
      </trkpt>
      <trkpt lat="35.274129000" lon="-106.473087000">
        <ele>1917.140</ele>
        <time>2013-03-09T20:28:15.919Z</time>
        <name>WPT.522</name>
      </trkpt>
      <trkpt lat="35.274223000" lon="-106.473124000">
        <ele>1918.020</ele>
        <time>2013-03-09T20:28:23.023Z</time>
        <name>WPT.523</name>
      </trkpt>
      <trkpt lat="35.274310000" lon="-106.473074000">
        <ele>1918.930</ele>
        <time>2013-03-09T20:28:32.881Z</time>
        <name>WPT.524</name>
      </trkpt>
      <trkpt lat="35.274369000" lon="-106.472987000">
        <ele>1918.980</ele>
        <time>2013-03-09T20:28:43.371Z</time>
        <name>WPT.525</name>
      </trkpt>
      <trkpt lat="35.274461000" lon="-106.472980000">
        <ele>1917.550</ele>
        <time>2013-03-09T20:28:53.554Z</time>
        <name>WPT.526</name>
      </trkpt>
      <trkpt lat="35.274526000" lon="-106.473077000">
        <ele>1915.160</ele>
        <time>2013-03-09T20:29:03.557Z</time>
        <name>WPT.527</name>
      </trkpt>
      <trkpt lat="35.274578000" lon="-106.473166000">
        <ele>1913.080</ele>
        <time>2013-03-09T20:29:11.519Z</time>
        <name>WPT.528</name>
      </trkpt>
      <trkpt lat="35.274626000" lon="-106.473285000">
        <ele>1912.360</ele>
        <time>2013-03-09T20:29:20.725Z</time>
        <name>WPT.529</name>
      </trkpt>
      <trkpt lat="35.274699000" lon="-106.473366000">
        <ele>1912.760</ele>
        <time>2013-03-09T20:29:29.779Z</time>
        <name>WPT.530</name>
      </trkpt>
      <trkpt lat="35.274787000" lon="-106.473388000">
        <ele>1913.170</ele>
        <time>2013-03-09T20:29:41.290Z</time>
        <name>WPT.531</name>
      </trkpt>
      <trkpt lat="35.274880000" lon="-106.473430000">
        <ele>1912.400</ele>
        <time>2013-03-09T20:29:54.135Z</time>
        <name>WPT.532</name>
      </trkpt>
      <trkpt lat="35.274963000" lon="-106.473492000">
        <ele>1909.870</ele>
        <time>2013-03-09T20:30:04.552Z</time>
        <name>WPT.533</name>
      </trkpt>
      <trkpt lat="35.275056000" lon="-106.473541000">
        <ele>1906.470</ele>
        <time>2013-03-09T20:30:15.200Z</time>
        <name>WPT.534</name>
      </trkpt>
      <trkpt lat="35.275056000" lon="-106.473541000">
        <ele>1902.990</ele>
        <time>2013-03-09T20:31:32.120Z</time>
        <name>WPT.535</name>
      </trkpt>
      <trkpt lat="35.275166000" lon="-106.473544000">
        <ele>1901.930</ele>
        <time>2013-03-09T20:31:54.361Z</time>
        <name>WPT.536</name>
      </trkpt>
      <trkpt lat="35.275255000" lon="-106.473589000">
        <ele>1901.220</ele>
        <time>2013-03-09T20:32:06.416Z</time>
        <name>WPT.537</name>
      </trkpt>
      <trkpt lat="35.275343000" lon="-106.473623000">
        <ele>1899.770</ele>
        <time>2013-03-09T20:32:16.429Z</time>
        <name>WPT.538</name>
      </trkpt>
      <trkpt lat="35.275440000" lon="-106.473623000">
        <ele>1898.310</ele>
        <time>2013-03-09T20:32:22.899Z</time>
        <name>WPT.539</name>
      </trkpt>
      <trkpt lat="35.275534000" lon="-106.473615000">
        <ele>1897.630</ele>
        <time>2013-03-09T20:32:29.315Z</time>
        <name>WPT.540</name>
      </trkpt>
      <trkpt lat="35.275618000" lon="-106.473576000">
        <ele>1897.260</ele>
        <time>2013-03-09T20:32:36.458Z</time>
        <name>WPT.541</name>
      </trkpt>
      <trkpt lat="35.275702000" lon="-106.473616000">
        <ele>1896.660</ele>
        <time>2013-03-09T20:32:44.418Z</time>
        <name>WPT.542</name>
      </trkpt>
      <trkpt lat="35.275793000" lon="-106.473652000">
        <ele>1896.180</ele>
        <time>2013-03-09T20:32:53.367Z</time>
        <name>WPT.543</name>
      </trkpt>
      <trkpt lat="35.275883000" lon="-106.473630000">
        <ele>1896.380</ele>
        <time>2013-03-09T20:33:03.125Z</time>
        <name>WPT.544</name>
      </trkpt>
      <trkpt lat="35.275981000" lon="-106.473645000">
        <ele>1897.200</ele>
        <time>2013-03-09T20:33:14.653Z</time>
        <name>WPT.545</name>
      </trkpt>
      <trkpt lat="35.276076000" lon="-106.473669000">
        <ele>1898.160</ele>
        <time>2013-03-09T20:33:26.259Z</time>
        <name>WPT.546</name>
      </trkpt>
      <trkpt lat="35.276142000" lon="-106.473745000">
        <ele>1898.360</ele>
        <time>2013-03-09T20:33:36.744Z</time>
        <name>WPT.547</name>
      </trkpt>
      <trkpt lat="35.276204000" lon="-106.473834000">
        <ele>1897.070</ele>
        <time>2013-03-09T20:33:47.818Z</time>
        <name>WPT.548</name>
      </trkpt>
      <trkpt lat="35.276284000" lon="-106.473890000">
        <ele>1894.570</ele>
        <time>2013-03-09T20:33:58.675Z</time>
        <name>WPT.549</name>
      </trkpt>
      <trkpt lat="35.276325000" lon="-106.474008000">
        <ele>1891.720</ele>
        <time>2013-03-09T20:34:09.917Z</time>
        <name>WPT.550</name>
      </trkpt>
      <trkpt lat="35.276395000" lon="-106.474083000">
        <ele>1889.250</ele>
        <time>2013-03-09T20:34:17.699Z</time>
        <name>WPT.551</name>
      </trkpt>
      <trkpt lat="35.276460000" lon="-106.474164000">
        <ele>1887.790</ele>
        <time>2013-03-09T20:34:24.881Z</time>
        <name>WPT.552</name>
      </trkpt>
      <trkpt lat="35.276550000" lon="-106.474139000">
        <ele>1887.110</ele>
        <time>2013-03-09T20:34:32.809Z</time>
        <name>WPT.553</name>
      </trkpt>
      <trkpt lat="35.276550000" lon="-106.474139000">
        <ele>1885.430</ele>
        <time>2013-03-09T20:34:45.875Z</time>
        <name>WPT.554</name>
      </trkpt>
      <trkpt lat="35.276617000" lon="-106.474049000">
        <ele>1884.170</ele>
        <time>2013-03-09T20:35:38.955Z</time>
        <name>WPT.555</name>
      </trkpt>
      <trkpt lat="35.276707000" lon="-106.474066000">
        <ele>1882.770</ele>
        <time>2013-03-09T20:35:46.979Z</time>
        <name>WPT.556</name>
      </trkpt>
      <trkpt lat="35.276799000" lon="-106.474105000">
        <ele>1879.310</ele>
        <time>2013-03-09T20:35:55.040Z</time>
        <name>WPT.557</name>
      </trkpt>
      <trkpt lat="35.276871000" lon="-106.474182000">
        <ele>1875.540</ele>
        <time>2013-03-09T20:36:02.985Z</time>
        <name>WPT.558</name>
      </trkpt>
      <trkpt lat="35.276871000" lon="-106.474182000">
        <ele>1873.090</ele>
        <time>2013-03-09T20:36:17.893Z</time>
        <name>WPT.559</name>
      </trkpt>
      <trkpt lat="35.276941000" lon="-106.474321000">
        <ele>1873.170</ele>
        <time>2013-03-09T20:36:46.954Z</time>
        <name>WPT.560</name>
      </trkpt>
      <trkpt lat="35.276979000" lon="-106.474425000">
        <ele>1873.650</ele>
        <time>2013-03-09T20:36:58.161Z</time>
        <name>WPT.561</name>
      </trkpt>
      <trkpt lat="35.276885000" lon="-106.474404000">
        <ele>1874.610</ele>
        <time>2013-03-09T20:37:06.659Z</time>
        <name>WPT.562</name>
      </trkpt>
      <trkpt lat="35.276796000" lon="-106.474412000">
        <ele>1875.270</ele>
        <time>2013-03-09T20:37:13.820Z</time>
        <name>WPT.563</name>
      </trkpt>
      <trkpt lat="35.276796000" lon="-106.474412000">
        <ele>1873.880</ele>
        <time>2013-03-09T20:37:34.045Z</time>
        <name>WPT.564</name>
      </trkpt>
      <trkpt lat="35.276714000" lon="-106.474476000">
        <ele>1873.060</ele>
        <time>2013-03-09T20:38:03.734Z</time>
        <name>WPT.565</name>
      </trkpt>
      <trkpt lat="35.276672000" lon="-106.474586000">
        <ele>1871.990</ele>
        <time>2013-03-09T20:38:11.758Z</time>
        <name>WPT.566</name>
      </trkpt>
      <trkpt lat="35.276610000" lon="-106.474675000">
        <ele>1870.150</ele>
        <time>2013-03-09T20:38:16.609Z</time>
        <name>WPT.567</name>
      </trkpt>
      <trkpt lat="35.276542000" lon="-106.474762000">
        <ele>1868.670</ele>
        <time>2013-03-09T20:38:22.601Z</time>
        <name>WPT.568</name>
      </trkpt>
      <trkpt lat="35.276471000" lon="-106.474861000">
        <ele>1868.600</ele>
        <time>2013-03-09T20:38:29.792Z</time>
        <name>WPT.569</name>
      </trkpt>
      <trkpt lat="35.276562000" lon="-106.474920000">
        <ele>1869.240</ele>
        <time>2013-03-09T20:38:37.522Z</time>
        <name>WPT.570</name>
      </trkpt>
      <trkpt lat="35.276662000" lon="-106.474930000">
        <ele>1869.060</ele>
        <time>2013-03-09T20:38:44.114Z</time>
        <name>WPT.571</name>
      </trkpt>
      <trkpt lat="35.276759000" lon="-106.474924000">
        <ele>1867.450</ele>
        <time>2013-03-09T20:38:51.536Z</time>
        <name>WPT.572</name>
      </trkpt>
      <trkpt lat="35.276850000" lon="-106.474932000">
        <ele>1865.610</ele>
        <time>2013-03-09T20:39:00.266Z</time>
        <name>WPT.573</name>
      </trkpt>
      <trkpt lat="35.276933000" lon="-106.474885000">
        <ele>1864.680</ele>
        <time>2013-03-09T20:39:11.411Z</time>
        <name>WPT.574</name>
      </trkpt>
      <trkpt lat="35.277026000" lon="-106.474935000">
        <ele>1863.950</ele>
        <time>2013-03-09T20:39:21.704Z</time>
        <name>WPT.575</name>
      </trkpt>
      <trkpt lat="35.277094000" lon="-106.475031000">
        <ele>1862.100</ele>
        <time>2013-03-09T20:39:30.557Z</time>
        <name>WPT.576</name>
      </trkpt>
      <trkpt lat="35.277137000" lon="-106.475155000">
        <ele>1859.190</ele>
        <time>2013-03-09T20:39:38.726Z</time>
        <name>WPT.577</name>
      </trkpt>
      <trkpt lat="35.277220000" lon="-106.475219000">
        <ele>1856.730</ele>
        <time>2013-03-09T20:39:45.298Z</time>
        <name>WPT.578</name>
      </trkpt>
      <trkpt lat="35.277293000" lon="-106.475290000">
        <ele>1855.290</ele>
        <time>2013-03-09T20:39:51.654Z</time>
        <name>WPT.579</name>
      </trkpt>
      <trkpt lat="35.277356000" lon="-106.475369000">
        <ele>1854.400</ele>
        <time>2013-03-09T20:39:58.436Z</time>
        <name>WPT.580</name>
      </trkpt>
      <trkpt lat="35.277427000" lon="-106.475446000">
        <ele>1853.440</ele>
        <time>2013-03-09T20:40:06.041Z</time>
        <name>WPT.581</name>
      </trkpt>
      <trkpt lat="35.277481000" lon="-106.475552000">
        <ele>1852.210</ele>
        <time>2013-03-09T20:40:12.863Z</time>
        <name>WPT.582</name>
      </trkpt>
      <trkpt lat="35.277522000" lon="-106.475655000">
        <ele>1851.150</ele>
        <time>2013-03-09T20:40:18.333Z</time>
        <name>WPT.583</name>
      </trkpt>
      <trkpt lat="35.277560000" lon="-106.475777000">
        <ele>1850.690</ele>
        <time>2013-03-09T20:40:25.061Z</time>
        <name>WPT.584</name>
      </trkpt>
      <trkpt lat="35.277564000" lon="-106.475900000">
        <ele>1850.930</ele>
        <time>2013-03-09T20:40:32.771Z</time>
        <name>WPT.585</name>
      </trkpt>
      <trkpt lat="35.277585000" lon="-106.476012000">
        <ele>1852.170</ele>
        <time>2013-03-09T20:40:40.846Z</time>
        <name>WPT.586</name>
      </trkpt>
      <trkpt lat="35.277604000" lon="-106.476134000">
        <ele>1854.080</ele>
        <time>2013-03-09T20:40:47.610Z</time>
        <name>WPT.587</name>
      </trkpt>
      <trkpt lat="35.277617000" lon="-106.476249000">
        <ele>1855.430</ele>
        <time>2013-03-09T20:40:53.491Z</time>
        <name>WPT.588</name>
      </trkpt>
      <trkpt lat="35.277634000" lon="-106.476361000">
        <ele>1855.650</ele>
        <time>2013-03-09T20:40:59.887Z</time>
        <name>WPT.589</name>
      </trkpt>
      <trkpt lat="35.277660000" lon="-106.476481000">
        <ele>1855.020</ele>
        <time>2013-03-09T20:41:10.883Z</time>
        <name>WPT.590</name>
      </trkpt>
      <trkpt lat="35.277706000" lon="-106.476583000">
        <ele>1853.830</ele>
        <time>2013-03-09T20:41:22.416Z</time>
        <name>WPT.591</name>
      </trkpt>
      <trkpt lat="35.277720000" lon="-106.476692000">
        <ele>1852.170</ele>
        <time>2013-03-09T20:41:29.490Z</time>
        <name>WPT.592</name>
      </trkpt>
      <trkpt lat="35.277745000" lon="-106.476813000">
        <ele>1850.210</ele>
        <time>2013-03-09T20:41:36.056Z</time>
        <name>WPT.593</name>
      </trkpt>
      <trkpt lat="35.277776000" lon="-106.476923000">
        <ele>1848.270</ele>
        <time>2013-03-09T20:41:42.214Z</time>
        <name>WPT.594</name>
      </trkpt>
      <trkpt lat="35.277799000" lon="-106.477033000">
        <ele>1846.580</ele>
        <time>2013-03-09T20:41:50.127Z</time>
        <name>WPT.595</name>
      </trkpt>
      <trkpt lat="35.277819000" lon="-106.477147000">
        <ele>1844.910</ele>
        <time>2013-03-09T20:41:58.889Z</time>
        <name>WPT.596</name>
      </trkpt>
      <trkpt lat="35.277837000" lon="-106.477264000">
        <ele>1842.820</ele>
        <time>2013-03-09T20:42:06.639Z</time>
        <name>WPT.597</name>
      </trkpt>
      <trkpt lat="35.277868000" lon="-106.477371000">
        <ele>1840.260</ele>
        <time>2013-03-09T20:42:12.205Z</time>
        <name>WPT.598</name>
      </trkpt>
      <trkpt lat="35.277914000" lon="-106.477479000">
        <ele>1838.010</ele>
        <time>2013-03-09T20:42:17.607Z</time>
        <name>WPT.599</name>
      </trkpt>
      <trkpt lat="35.277967000" lon="-106.477570000">
        <ele>1836.770</ele>
        <time>2013-03-09T20:42:23.252Z</time>
        <name>WPT.600</name>
      </trkpt>
      <trkpt lat="35.278059000" lon="-106.477632000">
        <ele>1836.480</ele>
        <time>2013-03-09T20:42:30.551Z</time>
        <name>WPT.601</name>
      </trkpt>
      <trkpt lat="35.278137000" lon="-106.477694000">
        <ele>1836.890</ele>
        <time>2013-03-09T20:42:37.394Z</time>
        <name>WPT.602</name>
      </trkpt>
      <trkpt lat="35.278200000" lon="-106.477799000">
        <ele>1837.790</ele>
        <time>2013-03-09T20:42:44.962Z</time>
        <name>WPT.603</name>
      </trkpt>
      <trkpt lat="35.278282000" lon="-106.477870000">
        <ele>1838.350</ele>
        <time>2013-03-09T20:42:52.565Z</time>
        <name>WPT.604</name>
      </trkpt>
      <trkpt lat="35.278359000" lon="-106.477948000">
        <ele>1837.590</ele>
        <time>2013-03-09T20:43:00.854Z</time>
        <name>WPT.605</name>
      </trkpt>
      <trkpt lat="35.278453000" lon="-106.477988000">
        <ele>1835.680</ele>
        <time>2013-03-09T20:43:09.597Z</time>
        <name>WPT.606</name>
      </trkpt>
      <trkpt lat="35.278545000" lon="-106.478041000">
        <ele>1833.510</ele>
        <time>2013-03-09T20:43:19.281Z</time>
        <name>WPT.607</name>
      </trkpt>
      <trkpt lat="35.278638000" lon="-106.478053000">
        <ele>1831.630</ele>
        <time>2013-03-09T20:43:29.055Z</time>
        <name>WPT.608</name>
      </trkpt>
      <trkpt lat="35.278704000" lon="-106.478129000">
        <ele>1828.650</ele>
        <time>2013-03-09T20:43:37.489Z</time>
        <name>WPT.609</name>
      </trkpt>
      <trkpt lat="35.278720000" lon="-106.478240000">
        <ele>1823.730</ele>
        <time>2013-03-09T20:43:44.065Z</time>
        <name>WPT.610</name>
      </trkpt>
      <trkpt lat="35.278746000" lon="-106.478359000">
        <ele>1819.360</ele>
        <time>2013-03-09T20:43:51.230Z</time>
        <name>WPT.611</name>
      </trkpt>
      <trkpt lat="35.278793000" lon="-106.478473000">
        <ele>1818.150</ele>
        <time>2013-03-09T20:43:58.787Z</time>
        <name>WPT.612</name>
      </trkpt>
      <trkpt lat="35.278803000" lon="-106.478606000">
        <ele>1819.530</ele>
        <time>2013-03-09T20:44:06.826Z</time>
        <name>WPT.613</name>
      </trkpt>
      <trkpt lat="35.278815000" lon="-106.478720000">
        <ele>1821.860</ele>
        <time>2013-03-09T20:44:13.582Z</time>
        <name>WPT.614</name>
      </trkpt>
      <trkpt lat="35.278833000" lon="-106.478830000">
        <ele>1823.860</ele>
        <time>2013-03-09T20:44:19.417Z</time>
        <name>WPT.615</name>
      </trkpt>
      <trkpt lat="35.278851000" lon="-106.478959000">
        <ele>1824.850</ele>
        <time>2013-03-09T20:44:25.689Z</time>
        <name>WPT.616</name>
      </trkpt>
      <trkpt lat="35.278840000" lon="-106.479074000">
        <ele>1824.760</ele>
        <time>2013-03-09T20:44:31.113Z</time>
        <name>WPT.617</name>
      </trkpt>
      <trkpt lat="35.278845000" lon="-106.479187000">
        <ele>1824.280</ele>
        <time>2013-03-09T20:44:37.071Z</time>
        <name>WPT.618</name>
      </trkpt>
      <trkpt lat="35.278831000" lon="-106.479299000">
        <ele>1823.520</ele>
        <time>2013-03-09T20:44:44.455Z</time>
        <name>WPT.619</name>
      </trkpt>
      <trkpt lat="35.278812000" lon="-106.479427000">
        <ele>1822.190</ele>
        <time>2013-03-09T20:44:54.009Z</time>
        <name>WPT.620</name>
      </trkpt>
      <trkpt lat="35.278784000" lon="-106.479540000">
        <ele>1820.730</ele>
        <time>2013-03-09T20:45:00.744Z</time>
        <name>WPT.621</name>
      </trkpt>
      <trkpt lat="35.278727000" lon="-106.479638000">
        <ele>1820.560</ele>
        <time>2013-03-09T20:45:07.310Z</time>
        <name>WPT.622</name>
      </trkpt>
      <trkpt lat="35.278630000" lon="-106.479666000">
        <ele>1822.140</ele>
        <time>2013-03-09T20:45:14.588Z</time>
        <name>WPT.623</name>
      </trkpt>
      <trkpt lat="35.278533000" lon="-106.479645000">
        <ele>1824.060</ele>
        <time>2013-03-09T20:45:21.749Z</time>
        <name>WPT.624</name>
      </trkpt>
      <trkpt lat="35.278437000" lon="-106.479625000">
        <ele>1824.910</ele>
        <time>2013-03-09T20:45:26.716Z</time>
        <name>WPT.625</name>
      </trkpt>
      <trkpt lat="35.278340000" lon="-106.479625000">
        <ele>1824.890</ele>
        <time>2013-03-09T20:45:31.522Z</time>
        <name>WPT.626</name>
      </trkpt>
      <trkpt lat="35.278246000" lon="-106.479630000">
        <ele>1824.750</ele>
        <time>2013-03-09T20:45:37.019Z</time>
        <name>WPT.627</name>
      </trkpt>
      <trkpt lat="35.278128000" lon="-106.479616000">
        <ele>1824.930</ele>
        <time>2013-03-09T20:45:49.436Z</time>
        <name>WPT.628</name>
      </trkpt>
      <trkpt lat="35.278046000" lon="-106.479667000">
        <ele>1825.360</ele>
        <time>2013-03-09T20:46:01.578Z</time>
        <name>WPT.629</name>
      </trkpt>
      <trkpt lat="35.277985000" lon="-106.479753000">
        <ele>1825.900</ele>
        <time>2013-03-09T20:46:10.743Z</time>
        <name>WPT.630</name>
      </trkpt>
      <trkpt lat="35.277976000" lon="-106.479869000">
        <ele>1826.450</ele>
        <time>2013-03-09T20:46:19.180Z</time>
        <name>WPT.631</name>
      </trkpt>
      <trkpt lat="35.278014000" lon="-106.479985000">
        <ele>1827.120</ele>
        <time>2013-03-09T20:46:27.854Z</time>
        <name>WPT.632</name>
      </trkpt>
      <trkpt lat="35.278014000" lon="-106.479985000">
        <ele>1828.290</ele>
        <time>2013-03-09T20:46:36.905Z</time>
        <name>WPT.633</name>
      </trkpt>
      <trkpt lat="35.278086000" lon="-106.480152000">
        <ele>1827.510</ele>
        <time>2013-03-09T20:47:01.431Z</time>
        <name>WPT.634</name>
      </trkpt>
      <trkpt lat="35.278099000" lon="-106.480270000">
        <ele>1826.420</ele>
        <time>2013-03-09T20:47:11.694Z</time>
        <name>WPT.635</name>
      </trkpt>
      <trkpt lat="35.278038000" lon="-106.480360000">
        <ele>1825.410</ele>
        <time>2013-03-09T20:47:22.231Z</time>
        <name>WPT.636</name>
      </trkpt>
      <trkpt lat="35.277982000" lon="-106.480469000">
        <ele>1824.190</ele>
        <time>2013-03-09T20:47:32.925Z</time>
        <name>WPT.637</name>
      </trkpt>
      <trkpt lat="35.277926000" lon="-106.480557000">
        <ele>1823.300</ele>
        <time>2013-03-09T20:47:38.846Z</time>
        <name>WPT.638</name>
      </trkpt>
      <trkpt lat="35.277909000" lon="-106.480679000">
        <ele>1823.500</ele>
        <time>2013-03-09T20:47:45.784Z</time>
        <name>WPT.639</name>
      </trkpt>
      <trkpt lat="35.277945000" lon="-106.480796000">
        <ele>1824.280</ele>
        <time>2013-03-09T20:47:53.828Z</time>
        <name>WPT.640</name>
      </trkpt>
      <trkpt lat="35.277986000" lon="-106.480901000">
        <ele>1824.440</ele>
        <time>2013-03-09T20:48:03.835Z</time>
        <name>WPT.641</name>
      </trkpt>
      <trkpt lat="35.277964000" lon="-106.481010000">
        <ele>1823.660</ele>
        <time>2013-03-09T20:48:14.483Z</time>
        <name>WPT.642</name>
      </trkpt>
      <trkpt lat="35.277941000" lon="-106.481123000">
        <ele>1821.950</ele>
        <time>2013-03-09T20:48:23.403Z</time>
        <name>WPT.643</name>
      </trkpt>
      <trkpt lat="35.277937000" lon="-106.481279000">
        <ele>1819.460</ele>
        <time>2013-03-09T20:48:33.240Z</time>
        <name>WPT.644</name>
      </trkpt>
      <trkpt lat="35.277966000" lon="-106.481394000">
        <ele>1817.390</ele>
        <time>2013-03-09T20:48:39.612Z</time>
        <name>WPT.645</name>
      </trkpt>
      <trkpt lat="35.278000000" lon="-106.481508000">
        <ele>1816.410</ele>
        <time>2013-03-09T20:48:44.529Z</time>
        <name>WPT.646</name>
      </trkpt>
      <trkpt lat="35.278028000" lon="-106.481625000">
        <ele>1816.000</ele>
        <time>2013-03-09T20:48:49.155Z</time>
        <name>WPT.647</name>
      </trkpt>
      <trkpt lat="35.278060000" lon="-106.481744000">
        <ele>1815.830</ele>
        <time>2013-03-09T20:48:54.452Z</time>
        <name>WPT.648</name>
      </trkpt>
      <trkpt lat="35.278084000" lon="-106.481865000">
        <ele>1815.830</ele>
        <time>2013-03-09T20:49:00.524Z</time>
        <name>WPT.649</name>
      </trkpt>
      <trkpt lat="35.278121000" lon="-106.481976000">
        <ele>1815.870</ele>
        <time>2013-03-09T20:49:07.606Z</time>
        <name>WPT.650</name>
      </trkpt>
      <trkpt lat="35.278128000" lon="-106.482088000">
        <ele>1815.900</ele>
        <time>2013-03-09T20:49:14.725Z</time>
        <name>WPT.651</name>
      </trkpt>
      <trkpt lat="35.278128000" lon="-106.482200000">
        <ele>1815.640</ele>
        <time>2013-03-09T20:49:21.553Z</time>
        <name>WPT.652</name>
      </trkpt>
      <trkpt lat="35.278131000" lon="-106.482326000">
        <ele>1814.920</ele>
        <time>2013-03-09T20:49:30.061Z</time>
        <name>WPT.653</name>
      </trkpt>
      <trkpt lat="35.278145000" lon="-106.482446000">
        <ele>1813.900</ele>
        <time>2013-03-09T20:49:39.724Z</time>
        <name>WPT.654</name>
      </trkpt>
      <trkpt lat="35.278156000" lon="-106.482559000">
        <ele>1812.690</ele>
        <time>2013-03-09T20:49:46.992Z</time>
        <name>WPT.655</name>
      </trkpt>
      <trkpt lat="35.278173000" lon="-106.482674000">
        <ele>1810.850</ele>
        <time>2013-03-09T20:49:53.391Z</time>
        <name>WPT.656</name>
      </trkpt>
      <trkpt lat="35.278158000" lon="-106.482789000">
        <ele>1808.390</ele>
        <time>2013-03-09T20:50:01.566Z</time>
        <name>WPT.657</name>
      </trkpt>
      <trkpt lat="35.278091000" lon="-106.482886000">
        <ele>1806.230</ele>
        <time>2013-03-09T20:50:10.694Z</time>
        <name>WPT.658</name>
      </trkpt>
      <trkpt lat="35.278015000" lon="-106.482980000">
        <ele>1805.060</ele>
        <time>2013-03-09T20:50:17.530Z</time>
        <name>WPT.659</name>
      </trkpt>
      <trkpt lat="35.277946000" lon="-106.483069000">
        <ele>1804.650</ele>
        <time>2013-03-09T20:50:23.199Z</time>
        <name>WPT.660</name>
      </trkpt>
      <trkpt lat="35.277861000" lon="-106.483107000">
        <ele>1804.680</ele>
        <time>2013-03-09T20:50:28.807Z</time>
        <name>WPT.661</name>
      </trkpt>
      <trkpt lat="35.277801000" lon="-106.483202000">
        <ele>1804.540</ele>
        <time>2013-03-09T20:50:36.398Z</time>
        <name>WPT.662</name>
      </trkpt>
      <trkpt lat="35.277791000" lon="-106.483318000">
        <ele>1803.920</ele>
        <time>2013-03-09T20:50:44.195Z</time>
        <name>WPT.663</name>
      </trkpt>
      <trkpt lat="35.277724000" lon="-106.483400000">
        <ele>1803.350</ele>
        <time>2013-03-09T20:50:50.985Z</time>
        <name>WPT.664</name>
      </trkpt>
      <trkpt lat="35.277658000" lon="-106.483477000">
        <ele>1803.350</ele>
        <time>2013-03-09T20:50:57.105Z</time>
        <name>WPT.665</name>
      </trkpt>
      <trkpt lat="35.277577000" lon="-106.483537000">
        <ele>1803.930</ele>
        <time>2013-03-09T20:51:03.802Z</time>
        <name>WPT.666</name>
      </trkpt>
      <trkpt lat="35.277577000" lon="-106.483537000">
        <ele>1805.700</ele>
        <time>2013-03-09T20:51:38.153Z</time>
        <name>WPT.667</name>
      </trkpt>
    </trkseg>
  </trk>
</gpx>
